<?xml version='1.0' encoding='UTF-8'?><gpx version="1.1" creator="JPX - https://github.com/jenetics/jpx" xmlns="http://www.topografix.com/GPX/1/1"><trk><trkseg><trkpt lat="48.58234486547167" lon="-2.5517696701013963"><ele>25.000000000000004</ele><time>2026-05-01T16:30:03Z</time></trkpt><trkpt lat="48.58228958682025" lon="-2.551831863822929"><ele>25.0</ele><time>2026-05-01T16:30:05Z</time></trkpt><trkpt lat="48.58222682387333" lon="-2.551893149211326"><ele>25.0</ele><time>2026-05-01T16:30:07Z</time></trkpt><trkpt lat="48.58215125788992" lon="-2.551971324022597"><ele>25.0</ele><time>2026-05-01T16:30:09Z</time></trkpt><trkpt lat="48.58212518034902" lon="-2.5521007775041626"><ele>25.000000000000004</ele><time>2026-05-01T16:30:11Z</time></trkpt><trkpt lat="48.582182533877074" lon="-2.5522331812569847"><ele>25.0</ele><time>2026-05-01T16:30:13Z</time></trkpt><trkpt lat="48.58219298668458" lon="-2.5523395059657585"><ele>25.000000000000004</ele><time>2026-05-01T16:30:15Z</time></trkpt><trkpt lat="48.5821512109147" lon="-2.5524211718382275"><ele>25.0</ele><time>2026-05-01T16:30:17Z</time></trkpt><trkpt lat="48.582061595871615" lon="-2.5524784629585344"><ele>25.0</ele><time>2026-05-01T16:30:19Z</time></trkpt><trkpt lat="48.58198165955088" lon="-2.5525268443817186"><ele>25.0</ele><time>2026-05-01T16:30:21Z</time></trkpt><trkpt lat="48.58190040458269" lon="-2.5526217950593324"><ele>25.000000000000004</ele><time>2026-05-01T16:30:23Z</time></trkpt><trkpt lat="48.58183016453584" lon="-2.5527087546940885"><ele>25.0</ele><time>2026-05-01T16:30:25Z</time></trkpt><trkpt lat="48.58177069773798" lon="-2.5527525717808754"><ele>24.500000000000004</ele><time>2026-05-01T16:30:27Z</time></trkpt><trkpt lat="48.581729818423334" lon="-2.55285316712571"><ele>24.0</ele><time>2026-05-01T16:30:29Z</time></trkpt><trkpt lat="48.58168682248681" lon="-2.5529422303308884"><ele>23.5</ele><time>2026-05-01T16:30:31Z</time></trkpt><trkpt lat="48.58163727705907" lon="-2.5530556365387356"><ele>23.0</ele><time>2026-05-01T16:30:33Z</time></trkpt><trkpt lat="48.581587610395175" lon="-2.553180064624846"><ele>22.5</ele><time>2026-05-01T16:30:35Z</time></trkpt><trkpt lat="48.58157335338735" lon="-2.553289145501446"><ele>22.0</ele><time>2026-05-01T16:30:37Z</time></trkpt><trkpt lat="48.581553348803794" lon="-2.55339406438263"><ele>21.5</ele><time>2026-05-01T16:30:39Z</time></trkpt><trkpt lat="48.58149529965883" lon="-2.5535026558931637"><ele>21.0</ele><time>2026-05-01T16:30:41Z</time></trkpt><trkpt lat="48.5814774195207" lon="-2.553598106412762"><ele>20.5</ele><time>2026-05-01T16:30:43Z</time></trkpt><trkpt lat="48.58142922009649" lon="-2.553706022065967"><ele>20.0</ele><time>2026-05-01T16:30:45Z</time></trkpt><trkpt lat="48.58137280634583" lon="-2.5537835353764184"><ele>19.5</ele><time>2026-05-01T16:30:47Z</time></trkpt><trkpt lat="48.58132700848311" lon="-2.5538847176720747"><ele>19.0</ele><time>2026-05-01T16:30:48.999Z</time></trkpt><trkpt lat="48.58128616067113" lon="-2.5539835567898757"><ele>19.0</ele><time>2026-05-01T16:30:50.999Z</time></trkpt><trkpt lat="48.58122186724011" lon="-2.554065381582759"><ele>19.0</ele><time>2026-05-01T16:30:52.999Z</time></trkpt><trkpt lat="48.58116611436825" lon="-2.5541697033525788"><ele>19.0</ele><time>2026-05-01T16:30:56.999Z</time></trkpt><trkpt lat="48.581152794763845" lon="-2.554304066721707"><ele>19.0</ele><time>2026-05-01T16:30:58.999Z</time></trkpt><trkpt lat="48.58113252573062" lon="-2.5544159217182987"><ele>19.0</ele><time>2026-05-01T16:31:00.999Z</time></trkpt><trkpt lat="48.58111459800469" lon="-2.5545401516204964"><ele>19.0</ele><time>2026-05-01T16:31:02.999Z</time></trkpt><trkpt lat="48.58111335033447" lon="-2.5546615692282515"><ele>19.0</ele><time>2026-05-01T16:31:04.999Z</time></trkpt><trkpt lat="48.58110343876119" lon="-2.554786732217506"><ele>19.0</ele><time>2026-05-01T16:31:06.999Z</time></trkpt><trkpt lat="48.58104212058886" lon="-2.55489020916333"><ele>19.0</ele><time>2026-05-01T16:31:08.999Z</time></trkpt><trkpt lat="48.58098067699485" lon="-2.554997998713541"><ele>19.0</ele><time>2026-05-01T16:31:10.999Z</time></trkpt><trkpt lat="48.58094390819732" lon="-2.5550817050397487"><ele>19.0</ele><time>2026-05-01T16:31:13.999Z</time></trkpt><trkpt lat="48.580924456343524" lon="-2.5552152808042434"><ele>19.0</ele><time>2026-05-01T16:31:15.999Z</time></trkpt><trkpt lat="48.58090381779902" lon="-2.5553235580229616"><ele>19.142857142857142</ele><time>2026-05-01T16:31:17.999Z</time></trkpt><trkpt lat="48.58088087938198" lon="-2.5554236650355797"><ele>19.28571428571429</ele><time>2026-05-01T16:31:19.999Z</time></trkpt><trkpt lat="48.58084659528117" lon="-2.5555340534596094"><ele>19.42857142857143</ele><time>2026-05-01T16:31:21.999Z</time></trkpt><trkpt lat="48.580829606563846" lon="-2.5556309976311193"><ele>19.57142857142857</ele><time>2026-05-01T16:31:23.999Z</time></trkpt><trkpt lat="48.58081522689693" lon="-2.5557368090531987"><ele>19.714285714285715</ele><time>2026-05-01T16:31:25.999Z</time></trkpt><trkpt lat="48.5807907765288" lon="-2.5558371327471763"><ele>19.857142857142858</ele><time>2026-05-01T16:31:27.999Z</time></trkpt><trkpt lat="48.58076425434596" lon="-2.5559525529495"><ele>20.0</ele><time>2026-05-01T16:31:29.999Z</time></trkpt><trkpt lat="48.5807327322936" lon="-2.556039815223455"><ele>20.0</ele><time>2026-05-01T16:31:31.999Z</time></trkpt><trkpt lat="48.5807215150853" lon="-2.5561500564750816"><ele>20.0</ele><time>2026-05-01T16:31:33.999Z</time></trkpt><trkpt lat="48.580712625489035" lon="-2.556254082094376"><ele>20.0</ele><time>2026-05-01T16:31:35.999Z</time></trkpt><trkpt lat="48.58068467136004" lon="-2.55636529873347"><ele>20.0</ele><time>2026-05-01T16:31:37.999Z</time></trkpt><trkpt lat="48.58065339639421" lon="-2.556454215875223"><ele>20.0</ele><time>2026-05-01T16:31:39.999Z</time></trkpt><trkpt lat="48.58062227983141" lon="-2.556562890527201"><ele>20.0</ele><time>2026-05-01T16:31:41.999Z</time></trkpt><trkpt lat="48.58058811238495" lon="-2.5566545388577655"><ele>20.0</ele><time>2026-05-01T16:31:43.999Z</time></trkpt><trkpt lat="48.580559775529856" lon="-2.5567490045331116"><ele>20.0</ele><time>2026-05-01T16:31:45.999Z</time></trkpt><trkpt lat="48.58049999545403" lon="-2.556808780078013"><ele>20.0</ele><time>2026-05-01T16:31:47.999Z</time></trkpt><trkpt lat="48.58048210319356" lon="-2.556914356262704"><ele>20.0</ele><time>2026-05-01T16:31:49.999Z</time></trkpt><trkpt lat="48.58047996409024" lon="-2.5570255952701793"><ele>20.0</ele><time>2026-05-01T16:31:51.999Z</time></trkpt><trkpt lat="48.580450600244006" lon="-2.5571396417716716"><ele>20.0</ele><time>2026-05-01T16:31:53.999Z</time></trkpt><trkpt lat="48.580414293773906" lon="-2.5572369137367432"><ele>20.0</ele><time>2026-05-01T16:31:55.999Z</time></trkpt><trkpt lat="48.580378453042535" lon="-2.557351099513485"><ele>18.666666666666668</ele><time>2026-05-01T16:31:57.999Z</time></trkpt><trkpt lat="48.58033978467302" lon="-2.557456094024686"><ele>17.333333333333336</ele><time>2026-05-01T16:31:59.999Z</time></trkpt><trkpt lat="48.58028747043516" lon="-2.5575549594482854"><ele>16.0</ele><time>2026-05-01T16:32:01.998Z</time></trkpt><trkpt lat="48.58026361385777" lon="-2.5576788334648937"><ele>14.666666666666668</ele><time>2026-05-01T16:32:03.998Z</time></trkpt><trkpt lat="48.58023427889048" lon="-2.5578217789361593"><ele>13.333333333333334</ele><time>2026-05-01T16:32:06Z</time></trkpt><trkpt lat="48.580225603769776" lon="-2.5579234330821685"><ele>12.0</ele><time>2026-05-01T16:32:08Z</time></trkpt><trkpt lat="48.58019856698901" lon="-2.558043380402421"><ele>11.666666666666666</ele><time>2026-05-01T16:32:10Z</time></trkpt><trkpt lat="48.580157953464656" lon="-2.5581351752304267"><ele>11.333333333333334</ele><time>2026-05-01T16:32:12Z</time></trkpt><trkpt lat="48.580111028126915" lon="-2.5582360741611287"><ele>11.0</ele><time>2026-05-01T16:32:14Z</time></trkpt><trkpt lat="48.58008257381918" lon="-2.558357605718599"><ele>10.666666666666668</ele><time>2026-05-01T16:32:16Z</time></trkpt><trkpt lat="48.58004988757527" lon="-2.5584613952634725"><ele>10.333333333333334</ele><time>2026-05-01T16:32:18Z</time></trkpt><trkpt lat="48.58001711175729" lon="-2.558577431982817"><ele>10.0</ele><time>2026-05-01T16:32:20Z</time></trkpt><trkpt lat="48.579995440847966" lon="-2.5586714887841504"><ele>10.0</ele><time>2026-05-01T16:32:22Z</time></trkpt><trkpt lat="48.57997896289365" lon="-2.5587674855405376"><ele>10.0</ele><time>2026-05-01T16:32:24Z</time></trkpt><trkpt lat="48.57995442596145" lon="-2.558890508672251"><ele>10.0</ele><time>2026-05-01T16:32:26Z</time></trkpt><trkpt lat="48.57993494582171" lon="-2.5590133100553163"><ele>10.0</ele><time>2026-05-01T16:32:28Z</time></trkpt><trkpt lat="48.579920703627" lon="-2.5591402392173905"><ele>10.0</ele><time>2026-05-01T16:32:30Z</time></trkpt><trkpt lat="48.57992147010389" lon="-2.5592879650614706"><ele>10.0</ele><time>2026-05-01T16:32:33Z</time></trkpt><trkpt lat="48.57993008559897" lon="-2.5594065339206304"><ele>10.666666666666668</ele><time>2026-05-01T16:32:35Z</time></trkpt><trkpt lat="48.57993165274681" lon="-2.5595399498195017"><ele>11.333333333333334</ele><time>2026-05-01T16:32:38Z</time></trkpt><trkpt lat="48.5799433447627" lon="-2.559658468839001"><ele>12.0</ele><time>2026-05-01T16:32:40Z</time></trkpt><trkpt lat="48.57997538640087" lon="-2.55979584167108"><ele>12.666666666666668</ele><time>2026-05-01T16:32:43Z</time></trkpt><trkpt lat="48.5799504068256" lon="-2.559909164106849"><ele>13.333333333333334</ele><time>2026-05-01T16:32:45Z</time></trkpt><trkpt lat="48.57996870344629" lon="-2.5600309511976986"><ele>14.0</ele><time>2026-05-01T16:32:48Z</time></trkpt><trkpt lat="48.57997285256514" lon="-2.560159794110567"><ele>14.000000000000002</ele><time>2026-05-01T16:32:51Z</time></trkpt><trkpt lat="48.57997033538436" lon="-2.560261407350626"><ele>14.0</ele><time>2026-05-01T16:32:53Z</time></trkpt><trkpt lat="48.57996755649218" lon="-2.5603600952480616"><ele>14.0</ele><time>2026-05-01T16:32:54.999Z</time></trkpt><trkpt lat="48.57995576385184" lon="-2.5605009650671446"><ele>14.0</ele><time>2026-05-01T16:32:57.999Z</time></trkpt><trkpt lat="48.57994535070633" lon="-2.5606364536000457"><ele>14.000000000000002</ele><time>2026-05-01T16:33:00.999Z</time></trkpt><trkpt lat="48.579928106818926" lon="-2.560734072839755"><ele>14.0</ele><time>2026-05-01T16:33:02.999Z</time></trkpt><trkpt lat="48.5799271896973" lon="-2.5608371604984113"><ele>14.000000000000002</ele><time>2026-05-01T16:33:04.999Z</time></trkpt><trkpt lat="48.579925074360936" lon="-2.5609796257232555"><ele>14.0</ele><time>2026-05-01T16:33:07.999Z</time></trkpt><trkpt lat="48.579931529557435" lon="-2.561083416567613"><ele>14.0</ele><time>2026-05-01T16:33:09.999Z</time></trkpt><trkpt lat="48.57991805866958" lon="-2.5612057967758606"><ele>14.0</ele><time>2026-05-01T16:33:12.999Z</time></trkpt><trkpt lat="48.579908101343804" lon="-2.561331300665635"><ele>14.000000000000002</ele><time>2026-05-01T16:33:15.999Z</time></trkpt><trkpt lat="48.57990009317017" lon="-2.5614685279853555"><ele>14.0</ele><time>2026-05-01T16:33:18.999Z</time></trkpt><trkpt lat="48.57989369506867" lon="-2.5615908466962907"><ele>14.166666666666668</ele><time>2026-05-01T16:33:22.999Z</time></trkpt><trkpt lat="48.57988120193831" lon="-2.561707741691675"><ele>14.333333333333334</ele><time>2026-05-01T16:33:26.999Z</time></trkpt><trkpt lat="48.57988150921952" lon="-2.5618159549759985"><ele>14.5</ele><time>2026-05-01T16:33:30.999Z</time></trkpt><trkpt lat="48.57984934069328" lon="-2.5619430548111275"><ele>14.666666666666668</ele><time>2026-05-01T16:33:33.999Z</time></trkpt><trkpt lat="48.579822142063705" lon="-2.5620469257696916"><ele>14.833333333333334</ele><time>2026-05-01T16:33:36.999Z</time></trkpt><trkpt lat="48.579802708688185" lon="-2.562152715937478"><ele>15.0</ele><time>2026-05-01T16:33:39.999Z</time></trkpt><trkpt lat="48.57976666325269" lon="-2.562252262616502"><ele>15.833333333333334</ele><time>2026-05-01T16:33:42.999Z</time></trkpt><trkpt lat="48.579741691498576" lon="-2.5623673371592233"><ele>16.666666666666668</ele><time>2026-05-01T16:33:46.999Z</time></trkpt><trkpt lat="48.57971227095462" lon="-2.562454044972338"><ele>17.5</ele><time>2026-05-01T16:33:49.999Z</time></trkpt><trkpt lat="48.579655556824335" lon="-2.5625501443268903"><ele>18.333333333333336</ele><time>2026-05-01T16:33:52.999Z</time></trkpt><trkpt lat="48.57960138255271" lon="-2.562631093648085"><ele>19.166666666666668</ele><time>2026-05-01T16:33:54.999Z</time></trkpt><trkpt lat="48.57954004510825" lon="-2.562769488049718"><ele>20.0</ele><time>2026-05-01T16:33:56.999Z</time></trkpt><trkpt lat="48.57949230088376" lon="-2.5628747609912295"><ele>18.166666666666668</ele><time>2026-05-01T16:33:58.999Z</time></trkpt><trkpt lat="48.5794345048804" lon="-2.5629802624594515"><ele>16.333333333333336</ele><time>2026-05-01T16:34:01.999Z</time></trkpt><trkpt lat="48.579398297468856" lon="-2.563067751985077"><ele>14.5</ele><time>2026-05-01T16:34:03.999Z</time></trkpt><trkpt lat="48.57935082631111" lon="-2.563185504994201"><ele>12.666666666666668</ele><time>2026-05-01T16:34:06.999Z</time></trkpt><trkpt lat="48.57927945666201" lon="-2.563279105915645"><ele>10.833333333333334</ele><time>2026-05-01T16:34:09.999Z</time></trkpt><trkpt lat="48.57924902440087" lon="-2.5633671779951634"><ele>9.0</ele><time>2026-05-01T16:34:12Z</time></trkpt><trkpt lat="48.579188505480495" lon="-2.5634581305313957"><ele>9.0</ele><time>2026-05-01T16:34:15Z</time></trkpt><trkpt lat="48.579149959236496" lon="-2.5635651009980243"><ele>9.0</ele><time>2026-05-01T16:34:18Z</time></trkpt><trkpt lat="48.57909112450953" lon="-2.563676629156921"><ele>9.0</ele><time>2026-05-01T16:34:21Z</time></trkpt><trkpt lat="48.57905161869451" lon="-2.563785775679353"><ele>9.0</ele><time>2026-05-01T16:34:24Z</time></trkpt><trkpt lat="48.57899258718765" lon="-2.563903602673764"><ele>9.0</ele><time>2026-05-01T16:34:27Z</time></trkpt><trkpt lat="48.578955684778855" lon="-2.56398086031938"><ele>9.0</ele><time>2026-05-01T16:34:29Z</time></trkpt><trkpt lat="48.57891537995077" lon="-2.5640684784672287"><ele>8.5</ele><time>2026-05-01T16:34:31Z</time></trkpt><trkpt lat="48.57886463478091" lon="-2.5641754697582053"><ele>8.0</ele><time>2026-05-01T16:34:34Z</time></trkpt><trkpt lat="48.57881042047889" lon="-2.5642838697490937"><ele>7.5</ele><time>2026-05-01T16:34:37Z</time></trkpt><trkpt lat="48.57874417367168" lon="-2.5643591795087946"><ele>7.0</ele><time>2026-05-01T16:34:40Z</time></trkpt><trkpt lat="48.57866597573478" lon="-2.564345042757813"><ele>6.5</ele><time>2026-05-01T16:34:47Z</time></trkpt><trkpt lat="48.57859765542336" lon="-2.5644346028473737"><ele>6.0</ele><time>2026-05-01T16:34:49Z</time></trkpt><trkpt lat="48.578564337007506" lon="-2.564566457690929"><ele>6.0</ele><time>2026-05-01T16:34:51Z</time></trkpt><trkpt lat="48.578534349893715" lon="-2.5646778273450015"><ele>6.0</ele><time>2026-05-01T16:34:53Z</time></trkpt><trkpt lat="48.57849708045375" lon="-2.5648053790459584"><ele>6.0</ele><time>2026-05-01T16:34:55Z</time></trkpt><trkpt lat="48.57845649284618" lon="-2.564920285721493"><ele>6.0</ele><time>2026-05-01T16:34:57Z</time></trkpt><trkpt lat="48.57843374959795" lon="-2.565039788971115"><ele>6.0</ele><time>2026-05-01T16:34:58.999Z</time></trkpt><trkpt lat="48.578406036231094" lon="-2.5651482045297964"><ele>6.0</ele><time>2026-05-01T16:35:00.999Z</time></trkpt><trkpt lat="48.57835535649763" lon="-2.5652475649590447"><ele>6.0</ele><time>2026-05-01T16:35:02.999Z</time></trkpt><trkpt lat="48.57832482333184" lon="-2.5653506032328792"><ele>6.0</ele><time>2026-05-01T16:35:04.999Z</time></trkpt><trkpt lat="48.57829685708278" lon="-2.56545886629995"><ele>6.0</ele><time>2026-05-01T16:35:06.999Z</time></trkpt><trkpt lat="48.57827622613898" lon="-2.565555667753618"><ele>6.0</ele><time>2026-05-01T16:35:08.999Z</time></trkpt><trkpt lat="48.57825327143208" lon="-2.5656479952918407"><ele>6.0</ele><time>2026-05-01T16:35:10.999Z</time></trkpt><trkpt lat="48.57826921484822" lon="-2.5657887278866034"><ele>6.0</ele><time>2026-05-01T16:35:13.999Z</time></trkpt><trkpt lat="48.5782983675276" lon="-2.565890841044621"><ele>6.142857142857142</ele><time>2026-05-01T16:35:15.999Z</time></trkpt><trkpt lat="48.578305272833724" lon="-2.5659898851983223"><ele>6.285714285714286</ele><time>2026-05-01T16:35:17.999Z</time></trkpt><trkpt lat="48.57831362803802" lon="-2.5660863620147065"><ele>6.428571428571429</ele><time>2026-05-01T16:35:19.999Z</time></trkpt><trkpt lat="48.57830620979802" lon="-2.566194116897748"><ele>6.571428571428571</ele><time>2026-05-01T16:35:21.999Z</time></trkpt><trkpt lat="48.57831349650625" lon="-2.566294673370795"><ele>6.714285714285714</ele><time>2026-05-01T16:35:23.999Z</time></trkpt><trkpt lat="48.57831301121186" lon="-2.566408573496303"><ele>6.857142857142857</ele><time>2026-05-01T16:35:25.999Z</time></trkpt><trkpt lat="48.578339690236305" lon="-2.5665015075044146"><ele>7.0</ele><time>2026-05-01T16:35:27.999Z</time></trkpt><trkpt lat="48.57836572996309" lon="-2.5665980873366148"><ele>7.0</ele><time>2026-05-01T16:35:29.999Z</time></trkpt><trkpt lat="48.57837018965702" lon="-2.5667416581792826"><ele>7.0</ele><time>2026-05-01T16:35:32.999Z</time></trkpt><trkpt lat="48.57839246282505" lon="-2.5668409779487775"><ele>7.0</ele><time>2026-05-01T16:35:34.999Z</time></trkpt><trkpt lat="48.57841301007155" lon="-2.5669432194522877"><ele>7.0</ele><time>2026-05-01T16:35:36.999Z</time></trkpt><trkpt lat="48.57843822269898" lon="-2.5670360798576644"><ele>7.0</ele><time>2026-05-01T16:35:38.999Z</time></trkpt><trkpt lat="48.578449343303994" lon="-2.5671309125286634"><ele>7.0</ele><time>2026-05-01T16:35:40.999Z</time></trkpt><trkpt lat="48.578452131313746" lon="-2.5672321513444336"><ele>7.0</ele><time>2026-05-01T16:35:42.999Z</time></trkpt><trkpt lat="48.57843330672998" lon="-2.5673371910828373"><ele>7.000000000000001</ele><time>2026-05-01T16:35:44.999Z</time></trkpt><trkpt lat="48.57844969326936" lon="-2.567470201061413"><ele>7.0</ele><time>2026-05-01T16:35:47.999Z</time></trkpt><trkpt lat="48.578504229750976" lon="-2.56757192073464"><ele>7.0</ele><time>2026-05-01T16:35:50.999Z</time></trkpt><trkpt lat="48.57852712175869" lon="-2.5676714133870884"><ele>7.0</ele><time>2026-05-01T16:35:54.999Z</time></trkpt><trkpt lat="48.57855838127317" lon="-2.567756797493787"><ele>7.000000000000001</ele><time>2026-05-01T16:35:57.999Z</time></trkpt><trkpt lat="48.57860580477495" lon="-2.567858238324375"><ele>7.0</ele><time>2026-05-01T16:36:00.999Z</time></trkpt><trkpt lat="48.57855940796891" lon="-2.567935620758887"><ele>6.500000000000001</ele><time>2026-05-01T16:36:02.999Z</time></trkpt><trkpt lat="48.57858946249598" lon="-2.568062518386798"><ele>6.0</ele><time>2026-05-01T16:36:05.999Z</time></trkpt><trkpt lat="48.57864253884642" lon="-2.568124328012456"><ele>5.5</ele><time>2026-05-01T16:36:07.999Z</time></trkpt><trkpt lat="48.57870331982889" lon="-2.5682195960853145"><ele>5.0</ele><time>2026-05-01T16:36:10.999Z</time></trkpt><trkpt lat="48.578716616590846" lon="-2.568314922045633"><ele>4.5</ele><time>2026-05-01T16:36:12.999Z</time></trkpt><trkpt lat="48.578740186579594" lon="-2.568410890520777"><ele>4.0</ele><time>2026-05-01T16:36:14.999Z</time></trkpt><trkpt lat="48.57875241073608" lon="-2.5685441749049933"><ele>4.833333333333333</ele><time>2026-05-01T16:36:18Z</time></trkpt><trkpt lat="48.57877616373145" lon="-2.5686389898697923"><ele>5.666666666666666</ele><time>2026-05-01T16:36:20Z</time></trkpt><trkpt lat="48.578808605836095" lon="-2.568771156427879"><ele>6.5</ele><time>2026-05-01T16:36:23Z</time></trkpt><trkpt lat="48.57887766773133" lon="-2.568880490132834"><ele>7.333333333333333</ele><time>2026-05-01T16:36:26Z</time></trkpt><trkpt lat="48.57889659390163" lon="-2.568985459379514"><ele>8.166666666666666</ele><time>2026-05-01T16:36:28Z</time></trkpt><trkpt lat="48.578900904578276" lon="-2.5690973038289777"><ele>9.0</ele><time>2026-05-01T16:36:31Z</time></trkpt><trkpt lat="48.57890856336617" lon="-2.5691924370068526"><ele>9.0</ele><time>2026-05-01T16:36:41Z</time></trkpt><trkpt lat="48.57891959988104" lon="-2.569299836283356"><ele>9.0</ele><time>2026-05-01T16:36:47Z</time></trkpt><trkpt lat="48.57898738060307" lon="-2.569319814909181"><ele>9.0</ele><time>2026-05-01T16:36:58Z</time></trkpt><trkpt lat="48.5790628055563" lon="-2.569300169127592"><ele>9.0</ele><time>2026-05-01T16:38:10Z</time></trkpt><trkpt lat="48.579116240189016" lon="-2.56924191490055"><ele>9.0</ele><time>2026-05-01T16:38:14Z</time></trkpt><trkpt lat="48.5791923069538" lon="-2.5692321020872986"><ele>9.0</ele><time>2026-05-01T16:38:17Z</time></trkpt><trkpt lat="48.579274977059846" lon="-2.569286741766243"><ele>9.0</ele><time>2026-05-01T16:38:19Z</time></trkpt><trkpt lat="48.57935890652163" lon="-2.5693405371188467"><ele>9.0</ele><time>2026-05-01T16:38:21Z</time></trkpt><trkpt lat="48.57942390143373" lon="-2.5693747525233315"><ele>9.0</ele><time>2026-05-01T16:38:23Z</time></trkpt><trkpt lat="48.57946425185887" lon="-2.569247513865914"><ele>9.0</ele><time>2026-05-01T16:38:26Z</time></trkpt><trkpt lat="48.57946565400695" lon="-2.569139291454511"><ele>9.0</ele><time>2026-05-01T16:38:28Z</time></trkpt><trkpt lat="48.57948952757085" lon="-2.5690151746974883"><ele>9.0</ele><time>2026-05-01T16:38:31Z</time></trkpt><trkpt lat="48.579540995127154" lon="-2.568941815544585"><ele>8.857142857142858</ele><time>2026-05-01T16:38:34Z</time></trkpt><trkpt lat="48.57959121962085" lon="-2.5688824200727747"><ele>8.714285714285715</ele><time>2026-05-01T16:38:38Z</time></trkpt><trkpt lat="48.579649559590706" lon="-2.568824865203897"><ele>8.571428571428571</ele><time>2026-05-01T16:38:41Z</time></trkpt><trkpt lat="48.57970711068505" lon="-2.568763261313103"><ele>8.428571428571429</ele><time>2026-05-01T16:38:43Z</time></trkpt><trkpt lat="48.57978161848631" lon="-2.5687436708302505"><ele>8.285714285714285</ele><time>2026-05-01T16:38:45Z</time></trkpt><trkpt lat="48.57985344261352" lon="-2.5687105022785897"><ele>8.142857142857142</ele><time>2026-05-01T16:38:47Z</time></trkpt><trkpt lat="48.57991643306494" lon="-2.568686788197786"><ele>8.0</ele><time>2026-05-01T16:38:49Z</time></trkpt><trkpt lat="48.57998574714004" lon="-2.5686829604736996"><ele>7.999999999999999</ele><time>2026-05-01T16:38:51Z</time></trkpt><trkpt lat="48.58005945335598" lon="-2.568688051496218"><ele>8.0</ele><time>2026-05-01T16:38:53Z</time></trkpt><trkpt lat="48.58014821632385" lon="-2.5686980951890823"><ele>8.0</ele><time>2026-05-01T16:38:56Z</time></trkpt><trkpt lat="48.5802228685743" lon="-2.5687267949937564"><ele>8.0</ele><time>2026-05-01T16:38:59Z</time></trkpt><trkpt lat="48.58029627706988" lon="-2.568766597338001"><ele>7.999999999999999</ele><time>2026-05-01T16:39:05.999Z</time></trkpt><trkpt lat="48.58033934051488" lon="-2.5688867471932793"><ele>8.0</ele><time>2026-05-01T16:39:07.999Z</time></trkpt><trkpt lat="48.580398161297815" lon="-2.5689801577935936"><ele>7.499999999999999</ele><time>2026-05-01T16:39:09.999Z</time></trkpt><trkpt lat="48.58049444634239" lon="-2.5690224369343366"><ele>7.0</ele><time>2026-05-01T16:39:11.999Z</time></trkpt><trkpt lat="48.58053104606793" lon="-2.569130564958237"><ele>6.5</ele><time>2026-05-01T16:39:13.999Z</time></trkpt><trkpt lat="48.580553110517855" lon="-2.569253683420374"><ele>6.0</ele><time>2026-05-01T16:39:15.999Z</time></trkpt><trkpt lat="48.58058197392947" lon="-2.5693625766977033"><ele>5.5</ele><time>2026-05-01T16:39:17.999Z</time></trkpt><trkpt lat="48.58063144935913" lon="-2.5694847322307077"><ele>5.0</ele><time>2026-05-01T16:39:19.999Z</time></trkpt><trkpt lat="48.580683385787935" lon="-2.5695743432686693"><ele>5.0</ele><time>2026-05-01T16:39:21.999Z</time></trkpt><trkpt lat="48.580762647104855" lon="-2.5696140785966235"><ele>5.0</ele><time>2026-05-01T16:39:23.999Z</time></trkpt><trkpt lat="48.58083085877179" lon="-2.5696360915702816"><ele>5.0</ele><time>2026-05-01T16:39:25.999Z</time></trkpt><trkpt lat="48.58090091604299" lon="-2.5696352788532946"><ele>5.0</ele><time>2026-05-01T16:39:27.999Z</time></trkpt><trkpt lat="48.58096948938927" lon="-2.5696259277922513"><ele>5.0</ele><time>2026-05-01T16:39:29.999Z</time></trkpt><trkpt lat="48.58103237248892" lon="-2.5696081757319993"><ele>5.0</ele><time>2026-05-01T16:39:31.999Z</time></trkpt><trkpt lat="48.58109418206519" lon="-2.5695895955613843"><ele>5.0</ele><time>2026-05-01T16:39:33.999Z</time></trkpt><trkpt lat="48.58117842456626" lon="-2.569614786975907"><ele>5.5</ele><time>2026-05-01T16:39:36.999Z</time></trkpt><trkpt lat="48.581269591589944" lon="-2.569618401516987"><ele>6.0</ele><time>2026-05-01T16:39:39.999Z</time></trkpt><trkpt lat="48.58134642846876" lon="-2.5696340497991668"><ele>6.5</ele><time>2026-05-01T16:39:42.999Z</time></trkpt><trkpt lat="48.58136817907997" lon="-2.5697389962588018"><ele>7.0</ele><time>2026-05-01T16:39:46.999Z</time></trkpt><trkpt lat="48.58137515444266" lon="-2.569860110626227"><ele>7.499999999999999</ele><time>2026-05-01T16:39:48.999Z</time></trkpt><trkpt lat="48.581422926268196" lon="-2.5699764090558204"><ele>8.0</ele><time>2026-05-01T16:39:50.999Z</time></trkpt><trkpt lat="48.58138558880214" lon="-2.5700548638068024"><ele>7.999999999999999</ele><time>2026-05-01T16:39:55.999Z</time></trkpt><trkpt lat="48.58132153728065" lon="-2.5700834121848395"><ele>8.0</ele><time>2026-05-01T16:40:02.999Z</time></trkpt><trkpt lat="48.58133820697826" lon="-2.570195788187329"><ele>8.0</ele><time>2026-05-01T16:40:04.999Z</time></trkpt><trkpt lat="48.58134796408457" lon="-2.5703399152469584"><ele>8.0</ele><time>2026-05-01T16:40:09.999Z</time></trkpt><trkpt lat="48.58134315225415" lon="-2.5702185037769123"><ele>7.999999999999999</ele><time>2026-05-01T16:40:30Z</time></trkpt><trkpt lat="48.581331494090236" lon="-2.5701112987191936"><ele>8.0</ele><time>2026-05-01T16:40:34Z</time></trkpt><trkpt lat="48.581356644748276" lon="-2.570011913168351"><ele>7.999999999999999</ele><time>2026-05-01T16:40:37Z</time></trkpt><trkpt lat="48.58142388216006" lon="-2.5699791351948122"><ele>8.0</ele><time>2026-05-01T16:40:42Z</time></trkpt><trkpt lat="48.581400995026115" lon="-2.569843871882911"><ele>8.0</ele><time>2026-05-01T16:40:45Z</time></trkpt><trkpt lat="48.58135970386385" lon="-2.5697609011129843"><ele>8.0</ele><time>2026-05-01T16:40:47Z</time></trkpt><trkpt lat="48.58134741335819" lon="-2.5696440794351982"><ele>7.999999999999999</ele><time>2026-05-01T16:40:50Z</time></trkpt><trkpt lat="48.58140351800192" lon="-2.5695894379864472"><ele>8.0</ele><time>2026-05-01T16:40:54Z</time></trkpt><trkpt lat="48.58147694028718" lon="-2.569567044706587"><ele>8.0</ele><time>2026-05-01T16:40:57Z</time></trkpt><trkpt lat="48.58154578013604" lon="-2.569564206068054"><ele>7.999999999999999</ele><time>2026-05-01T16:41:00Z</time></trkpt><trkpt lat="48.58161597361575" lon="-2.569547720687428"><ele>8.0</ele><time>2026-05-01T16:41:03Z</time></trkpt><trkpt lat="48.58167865567205" lon="-2.569531887198542"><ele>8.0</ele><time>2026-05-01T16:41:06Z</time></trkpt><trkpt lat="48.5817427793847" lon="-2.569506611840278"><ele>7.999999999999999</ele><time>2026-05-01T16:41:10.999Z</time></trkpt><trkpt lat="48.58181352925975" lon="-2.569489856606373"><ele>8.0</ele><time>2026-05-01T16:41:16.999Z</time></trkpt><trkpt lat="48.581879358557515" lon="-2.5694690206801662"><ele>8.0</ele><time>2026-05-01T16:41:22.999Z</time></trkpt><trkpt lat="48.58194378211778" lon="-2.569471369024311"><ele>10.285714285714285</ele><time>2026-05-01T16:41:27.999Z</time></trkpt><trkpt lat="48.58199870280176" lon="-2.5694052911690366"><ele>12.57142857142857</ele><time>2026-05-01T16:41:33.999Z</time></trkpt><trkpt lat="48.58205983894939" lon="-2.5693548275517832"><ele>14.857142857142856</ele><time>2026-05-01T16:41:38.999Z</time></trkpt><trkpt lat="48.58212751667332" lon="-2.569310245954641"><ele>17.142857142857142</ele><time>2026-05-01T16:41:43.999Z</time></trkpt><trkpt lat="48.58219264704742" lon="-2.5692718615579864"><ele>19.428571428571427</ele><time>2026-05-01T16:41:48.999Z</time></trkpt><trkpt lat="48.58225750503407" lon="-2.5693085269299885"><ele>21.71428571428571</ele><time>2026-05-01T16:41:53.999Z</time></trkpt><trkpt lat="48.58232883209026" lon="-2.5693234656478356"><ele>24.0</ele><time>2026-05-01T16:41:58.999Z</time></trkpt><trkpt lat="48.58239517978298" lon="-2.5692997708507543"><ele>23.999999999999996</ele><time>2026-05-01T16:42:04.999Z</time></trkpt><trkpt lat="48.582458091529816" lon="-2.5693126187502577"><ele>24.0</ele><time>2026-05-01T16:42:10.999Z</time></trkpt><trkpt lat="48.58252984869369" lon="-2.569326083343249"><ele>24.0</ele><time>2026-05-01T16:42:15.999Z</time></trkpt><trkpt lat="48.582604603241876" lon="-2.569321550003682"><ele>24.0</ele><time>2026-05-01T16:42:21Z</time></trkpt><trkpt lat="48.58267381524018" lon="-2.5693077329603207"><ele>24.0</ele><time>2026-05-01T16:42:26Z</time></trkpt><trkpt lat="48.582744083707986" lon="-2.569308598769806"><ele>23.999999999999996</ele><time>2026-05-01T16:42:31Z</time></trkpt><trkpt lat="48.58281291064962" lon="-2.5693010171833373"><ele>24.0</ele><time>2026-05-01T16:42:36Z</time></trkpt><trkpt lat="48.58287744607576" lon="-2.569302436921095"><ele>22.285714285714285</ele><time>2026-05-01T16:42:41Z</time></trkpt><trkpt lat="48.58293975545142" lon="-2.5692782827089586"><ele>20.57142857142857</ele><time>2026-05-01T16:42:45Z</time></trkpt><trkpt lat="48.58301211397029" lon="-2.569262520665131"><ele>18.857142857142854</ele><time>2026-05-01T16:42:50Z</time></trkpt><trkpt lat="48.58307514828072" lon="-2.5692524124379434"><ele>17.142857142857142</ele><time>2026-05-01T16:42:54Z</time></trkpt><trkpt lat="48.583146799024014" lon="-2.5692407140150397"><ele>15.428571428571427</ele><time>2026-05-01T16:42:59Z</time></trkpt><trkpt lat="48.583214902043686" lon="-2.5691925267084144"><ele>13.714285714285714</ele><time>2026-05-01T16:43:04Z</time></trkpt><trkpt lat="48.5832840576944" lon="-2.5691645788813937"><ele>12.0</ele><time>2026-05-01T16:43:09Z</time></trkpt><trkpt lat="48.583347262567855" lon="-2.5691738782386246"><ele>11.999999999999998</ele><time>2026-05-01T16:43:13Z</time></trkpt><trkpt lat="48.58342559988979" lon="-2.569173098558931"><ele>12.0</ele><time>2026-05-01T16:43:17.999Z</time></trkpt><trkpt lat="48.58340513431335" lon="-2.569200005384692"><ele>12.0</ele><time>2026-05-01T16:44:33Z</time></trkpt><trkpt lat="48.58333149929399" lon="-2.5691462773853626"><ele>12.0</ele><time>2026-05-01T16:44:36Z</time></trkpt><trkpt lat="48.58327831611837" lon="-2.569011747839459"><ele>12.0</ele><time>2026-05-01T16:44:39Z</time></trkpt><trkpt lat="48.58323833850951" lon="-2.568916548010099"><ele>11.999999999999998</ele><time>2026-05-01T16:44:41Z</time></trkpt><trkpt lat="48.58321429294315" lon="-2.568826482006942"><ele>12.0</ele><time>2026-05-01T16:44:43Z</time></trkpt><trkpt lat="48.58315555876534" lon="-2.5687463660786576"><ele>11.333333333333334</ele><time>2026-05-01T16:44:47Z</time></trkpt><trkpt lat="48.583100023142556" lon="-2.568661703829082"><ele>10.666666666666666</ele><time>2026-05-01T16:44:51Z</time></trkpt><trkpt lat="48.583041295595564" lon="-2.5685998774647754"><ele>10.0</ele><time>2026-05-01T16:44:54Z</time></trkpt><trkpt lat="48.58298018323765" lon="-2.568558150583918"><ele>9.333333333333332</ele><time>2026-05-01T16:44:57Z</time></trkpt><trkpt lat="48.582906541285" lon="-2.568489873278138"><ele>8.666666666666666</ele><time>2026-05-01T16:44:59Z</time></trkpt><trkpt lat="48.582819290512035" lon="-2.5684252663330924"><ele>8.0</ele><time>2026-05-01T16:45:01Z</time></trkpt><trkpt lat="48.58273994133531" lon="-2.56834161494704"><ele>9.666666666666666</ele><time>2026-05-01T16:45:03Z</time></trkpt><trkpt lat="48.582665221477" lon="-2.568262871781316"><ele>11.333333333333332</ele><time>2026-05-01T16:45:05Z</time></trkpt><trkpt lat="48.58260221949254" lon="-2.568219492422923"><ele>13.0</ele><time>2026-05-01T16:45:07Z</time></trkpt><trkpt lat="48.58252728634131" lon="-2.5681400422088023"><ele>14.666666666666666</ele><time>2026-05-01T16:45:09Z</time></trkpt><trkpt lat="48.58246717717302" lon="-2.5680628897910105"><ele>16.333333333333332</ele><time>2026-05-01T16:45:12Z</time></trkpt><trkpt lat="48.58242519165181" lon="-2.5679741605205493"><ele>18.0</ele><time>2026-05-01T16:45:14Z</time></trkpt><trkpt lat="48.582391750605005" lon="-2.56785020171144"><ele>18.0</ele><time>2026-05-01T16:45:17Z</time></trkpt><trkpt lat="48.58236665306181" lon="-2.567730404325064"><ele>18.0</ele><time>2026-05-01T16:45:20Z</time></trkpt><trkpt lat="48.58239328921186" lon="-2.567580289976723"><ele>18.0</ele><time>2026-05-01T16:45:22Z</time></trkpt><trkpt lat="48.58242211454429" lon="-2.567466120870135"><ele>18.0</ele><time>2026-05-01T16:45:24Z</time></trkpt><trkpt lat="48.582455119052085" lon="-2.5673548744101002"><ele>18.0</ele><time>2026-05-01T16:45:25.999Z</time></trkpt><trkpt lat="48.58246507567363" lon="-2.5672605785819322"><ele>18.0</ele><time>2026-05-01T16:45:27.999Z</time></trkpt><trkpt lat="48.582442671138445" lon="-2.5671139443334656"><ele>17.333333333333332</ele><time>2026-05-01T16:45:29.999Z</time></trkpt><trkpt lat="48.582446061045985" lon="-2.566969745964871"><ele>16.666666666666668</ele><time>2026-05-01T16:45:31.999Z</time></trkpt><trkpt lat="48.582487318944715" lon="-2.566859192114074"><ele>16.0</ele><time>2026-05-01T16:45:33.999Z</time></trkpt><trkpt lat="48.58247203980705" lon="-2.5667449389126964"><ele>15.333333333333334</ele><time>2026-05-01T16:45:35.999Z</time></trkpt><trkpt lat="48.582469668185496" lon="-2.566630141976987"><ele>14.666666666666668</ele><time>2026-05-01T16:45:37.999Z</time></trkpt><trkpt lat="48.58248081164036" lon="-2.5665311727411195"><ele>14.0</ele><time>2026-05-01T16:45:39.999Z</time></trkpt><trkpt lat="48.582474150187565" lon="-2.5663927047915056"><ele>14.000000000000002</ele><time>2026-05-01T16:45:42.999Z</time></trkpt><trkpt lat="48.58250621880011" lon="-2.5662635783122436"><ele>14.0</ele><time>2026-05-01T16:45:45.999Z</time></trkpt><trkpt lat="48.582522157577536" lon="-2.5661279322310877"><ele>14.0</ele><time>2026-05-01T16:45:48.999Z</time></trkpt><trkpt lat="48.58255192859016" lon="-2.566008324797122"><ele>14.0</ele><time>2026-05-01T16:45:51.999Z</time></trkpt><trkpt lat="48.582610086517974" lon="-2.5659023732958914"><ele>14.000000000000002</ele><time>2026-05-01T16:45:54.999Z</time></trkpt><trkpt lat="48.582665798025836" lon="-2.5658028595873508"><ele>14.0</ele><time>2026-05-01T16:45:57.999Z</time></trkpt><trkpt lat="48.58272382341147" lon="-2.5657206116353977"><ele>13.500000000000002</ele><time>2026-05-01T16:46:00.999Z</time></trkpt><trkpt lat="48.582784983835715" lon="-2.565638780408506"><ele>13.0</ele><time>2026-05-01T16:46:03.999Z</time></trkpt><trkpt lat="48.582827148143394" lon="-2.565559515639998"><ele>12.5</ele><time>2026-05-01T16:46:07.999Z</time></trkpt><trkpt lat="48.58288381055078" lon="-2.565496725934949"><ele>12.0</ele><time>2026-05-01T16:46:12.999Z</time></trkpt><trkpt lat="48.582946140328914" lon="-2.565446735918713"><ele>11.5</ele><time>2026-05-01T16:46:16.999Z</time></trkpt><trkpt lat="48.583021373624256" lon="-2.5654104227799275"><ele>11.0</ele><time>2026-05-01T16:46:20.999Z</time></trkpt><trkpt lat="48.58309868183431" lon="-2.5653731264560906"><ele>11.0</ele><time>2026-05-01T16:46:24.999Z</time></trkpt><trkpt lat="48.58317297948099" lon="-2.5653458502955027"><ele>11.0</ele><time>2026-05-01T16:46:27.999Z</time></trkpt><trkpt lat="48.583236189356526" lon="-2.565335634982688"><ele>11.0</ele><time>2026-05-01T16:46:30.999Z</time></trkpt><trkpt lat="48.58330680310403" lon="-2.5653366172363508"><ele>11.0</ele><time>2026-05-01T16:46:35.999Z</time></trkpt><trkpt lat="48.583383564398126" lon="-2.56534511522033"><ele>11.0</ele><time>2026-05-01T16:46:41Z</time></trkpt><trkpt lat="48.58346570389942" lon="-2.5653701829856317"><ele>11.0</ele><time>2026-05-01T16:46:45Z</time></trkpt><trkpt lat="48.58353246824647" lon="-2.5653924205017593"><ele>11.0</ele><time>2026-05-01T16:46:48Z</time></trkpt><trkpt lat="48.583595848933506" lon="-2.565446420281036"><ele>11.0</ele><time>2026-05-01T16:46:51Z</time></trkpt><trkpt lat="48.58365978872534" lon="-2.565518143212988"><ele>11.0</ele><time>2026-05-01T16:46:55Z</time></trkpt><trkpt lat="48.583738115927915" lon="-2.5655927067368247"><ele>11.0</ele><time>2026-05-01T16:46:57Z</time></trkpt><trkpt lat="48.583824067982285" lon="-2.5657028227824936"><ele>11.0</ele><time>2026-05-01T16:46:59Z</time></trkpt><trkpt lat="48.58386847810832" lon="-2.5658227407576715"><ele>11.0</ele><time>2026-05-01T16:47:01Z</time></trkpt><trkpt lat="48.58385166048045" lon="-2.565964644576147"><ele>10.333333333333332</ele><time>2026-05-01T16:47:04Z</time></trkpt><trkpt lat="48.58389172369713" lon="-2.5660633277860616"><ele>9.666666666666666</ele><time>2026-05-01T16:47:06Z</time></trkpt><trkpt lat="48.58399612266039" lon="-2.566035392541435"><ele>9.0</ele><time>2026-05-01T16:47:08Z</time></trkpt><trkpt lat="48.5840637449743" lon="-2.5659937613535826"><ele>8.333333333333334</ele><time>2026-05-01T16:47:10Z</time></trkpt><trkpt lat="48.58412159613644" lon="-2.5659513929850353"><ele>7.666666666666667</ele><time>2026-05-01T16:47:13Z</time></trkpt><trkpt lat="48.584165911726885" lon="-2.565873737424617"><ele>7.0</ele><time>2026-05-01T16:47:17Z</time></trkpt><trkpt lat="48.58417464886922" lon="-2.5657785881937523"><ele>7.0</ele><time>2026-05-01T16:47:22Z</time></trkpt><trkpt lat="48.58424976617846" lon="-2.565769493265936"><ele>7.0</ele><time>2026-05-01T16:47:26Z</time></trkpt><trkpt lat="48.58431427999837" lon="-2.565778976385229"><ele>7.0</ele><time>2026-05-01T16:47:28.999Z</time></trkpt><trkpt lat="48.58436348372537" lon="-2.565715425957449"><ele>7.0</ele><time>2026-05-01T16:47:30.999Z</time></trkpt><trkpt lat="48.58438302002809" lon="-2.565623759245248"><ele>7.0</ele><time>2026-05-01T16:47:32.999Z</time></trkpt><trkpt lat="48.58440371341262" lon="-2.5655292443984603"><ele>7.0</ele><time>2026-05-01T16:47:34.999Z</time></trkpt><trkpt lat="48.58439380284316" lon="-2.565397252850185"><ele>7.0</ele><time>2026-05-01T16:47:37.999Z</time></trkpt><trkpt lat="48.58438819782444" lon="-2.5652498190196926"><ele>9.0</ele><time>2026-05-01T16:47:40.999Z</time></trkpt><trkpt lat="48.5843892469931" lon="-2.565117944324966"><ele>11.0</ele><time>2026-05-01T16:47:43.999Z</time></trkpt><trkpt lat="48.58439172506294" lon="-2.5650178150627805"><ele>13.0</ele><time>2026-05-01T16:47:45.999Z</time></trkpt><trkpt lat="48.58436983026591" lon="-2.564904408550348"><ele>15.0</ele><time>2026-05-01T16:47:48.999Z</time></trkpt><trkpt lat="48.58439031312041" lon="-2.564790162526633"><ele>17.0</ele><time>2026-05-01T16:47:51.999Z</time></trkpt><trkpt lat="48.584397444065864" lon="-2.5646709613343885"><ele>19.0</ele><time>2026-05-01T16:47:54.999Z</time></trkpt><trkpt lat="48.58436137319666" lon="-2.564568484903124"><ele>19.0</ele><time>2026-05-01T16:47:56.999Z</time></trkpt><trkpt lat="48.58430283356099" lon="-2.564502139332284"><ele>19.0</ele><time>2026-05-01T16:47:58.999Z</time></trkpt><trkpt lat="48.58422230609886" lon="-2.564508871103659"><ele>19.0</ele><time>2026-05-01T16:48:01.999Z</time></trkpt><trkpt lat="48.58414705298728" lon="-2.564535199529827"><ele>19.0</ele><time>2026-05-01T16:48:04.999Z</time></trkpt><trkpt lat="48.58407667810049" lon="-2.5646082684179548"><ele>19.0</ele><time>2026-05-01T16:48:08.999Z</time></trkpt><trkpt lat="48.584012540919296" lon="-2.564642352387787"><ele>19.0</ele><time>2026-05-01T16:48:11.999Z</time></trkpt><trkpt lat="48.58394096810842" lon="-2.564629367935566"><ele>19.0</ele><time>2026-05-01T16:48:15.999Z</time></trkpt><trkpt lat="48.583885095350745" lon="-2.5645783131413205"><ele>19.0</ele><time>2026-05-01T16:48:18.999Z</time></trkpt><trkpt lat="48.58384961899369" lon="-2.56448766887344"><ele>19.0</ele><time>2026-05-01T16:48:21.999Z</time></trkpt><trkpt lat="48.58380894662168" lon="-2.564374565817348"><ele>19.0</ele><time>2026-05-01T16:48:24.999Z</time></trkpt><trkpt lat="48.58378230838029" lon="-2.5642752234420283"><ele>19.0</ele><time>2026-05-01T16:48:27.999Z</time></trkpt><trkpt lat="48.583797424258975" lon="-2.564149079240533"><ele>19.0</ele><time>2026-05-01T16:48:30.999Z</time></trkpt><trkpt lat="48.58379816311775" lon="-2.564007790322846"><ele>18.57142857142857</ele><time>2026-05-01T16:48:33.999Z</time></trkpt><trkpt lat="48.58379203931503" lon="-2.5639072982309647"><ele>18.142857142857146</ele><time>2026-05-01T16:48:35.999Z</time></trkpt><trkpt lat="48.58378954306719" lon="-2.5638085719858035"><ele>17.714285714285715</ele><time>2026-05-01T16:48:37.999Z</time></trkpt><trkpt lat="48.58379070403843" lon="-2.563677594902321"><ele>17.285714285714285</ele><time>2026-05-01T16:48:40.998Z</time></trkpt><trkpt lat="48.583815308558044" lon="-2.5635823809562783"><ele>16.857142857142854</ele><time>2026-05-01T16:48:42.998Z</time></trkpt><trkpt lat="48.58385606605366" lon="-2.5635041941215166"><ele>16.428571428571427</ele><time>2026-05-01T16:48:45Z</time></trkpt><trkpt lat="48.58390177548018" lon="-2.563401673970466"><ele>16.0</ele><time>2026-05-01T16:48:49Z</time></trkpt><trkpt lat="48.58393856106091" lon="-2.563323292467518"><ele>15.499999999999998</ele><time>2026-05-01T16:48:51Z</time></trkpt><trkpt lat="48.58399410680691" lon="-2.563228421279436"><ele>15.0</ele><time>2026-05-01T16:48:54Z</time></trkpt><trkpt lat="48.58400574521097" lon="-2.5631286121119308"><ele>14.5</ele><time>2026-05-01T16:48:56Z</time></trkpt><trkpt lat="48.584004128287496" lon="-2.563017456117314"><ele>14.0</ele><time>2026-05-01T16:48:58Z</time></trkpt><trkpt lat="48.58402046162758" lon="-2.5629068660656986"><ele>13.499999999999998</ele><time>2026-05-01T16:49:00Z</time></trkpt><trkpt lat="48.584028926118016" lon="-2.5627978725820157"><ele>13.0</ele><time>2026-05-01T16:49:02Z</time></trkpt><trkpt lat="48.584036295540095" lon="-2.562659744019725"><ele>13.0</ele><time>2026-05-01T16:49:04Z</time></trkpt><trkpt lat="48.584116537284565" lon="-2.5626111538648484"><ele>13.0</ele><time>2026-05-01T16:49:06Z</time></trkpt><trkpt lat="48.584217216460736" lon="-2.56262605978182"><ele>13.0</ele><time>2026-05-01T16:49:08Z</time></trkpt><trkpt lat="48.584275968390706" lon="-2.562669986471241"><ele>13.0</ele><time>2026-05-01T16:49:10Z</time></trkpt><trkpt lat="48.58433355330173" lon="-2.56271303391395"><ele>13.0</ele><time>2026-05-01T16:49:13Z</time></trkpt><trkpt lat="48.58469322328324" lon="-2.562310751529934"><ele>12.142857142857142</ele><time>2026-05-01T16:51:04.998Z</time></trkpt><trkpt lat="48.58468894851262" lon="-2.5622136890912075"><ele>11.285714285714286</ele><time>2026-05-01T16:51:10Z</time></trkpt><trkpt lat="48.58470931983834" lon="-2.5621095277549277"><ele>10.428571428571429</ele><time>2026-05-01T16:51:13Z</time></trkpt><trkpt lat="48.584754885944335" lon="-2.5620057146446227"><ele>9.571428571428571</ele><time>2026-05-01T16:51:16Z</time></trkpt><trkpt lat="48.584803157037236" lon="-2.561934592214002"><ele>8.714285714285715</ele><time>2026-05-01T16:51:18Z</time></trkpt><trkpt lat="48.58485236300285" lon="-2.561832549409918"><ele>7.857142857142858</ele><time>2026-05-01T16:51:21Z</time></trkpt><trkpt lat="48.58490010632469" lon="-2.561749168186017"><ele>7.0</ele><time>2026-05-01T16:51:24Z</time></trkpt><trkpt lat="48.584949805670796" lon="-2.56164720004144"><ele>7.000000000000001</ele><time>2026-05-01T16:51:27Z</time></trkpt><trkpt lat="48.585008500730275" lon="-2.56154305277945"><ele>7.0</ele><time>2026-05-01T16:51:30Z</time></trkpt><trkpt lat="48.585071395624524" lon="-2.5614468036652767"><ele>7.0</ele><time>2026-05-01T16:51:33Z</time></trkpt><trkpt lat="48.58510848994079" lon="-2.5613585962035095"><ele>7.0</ele><time>2026-05-01T16:51:36Z</time></trkpt><trkpt lat="48.58516073179509" lon="-2.561281497267661"><ele>7.000000000000001</ele><time>2026-05-01T16:51:39Z</time></trkpt><trkpt lat="48.58521543107636" lon="-2.5611900969870454"><ele>7.0</ele><time>2026-05-01T16:51:42Z</time></trkpt><trkpt lat="48.58525947005247" lon="-2.5611047342212765"><ele>7.333333333333334</ele><time>2026-05-01T16:51:45Z</time></trkpt><trkpt lat="48.58531828180238" lon="-2.5610060912566883"><ele>7.666666666666667</ele><time>2026-05-01T16:51:48Z</time></trkpt><trkpt lat="48.585391088505126" lon="-2.5609352144088535"><ele>8.0</ele><time>2026-05-01T16:51:50.999Z</time></trkpt><trkpt lat="48.58543590180398" lon="-2.560846139378522"><ele>8.333333333333334</ele><time>2026-05-01T16:51:53.999Z</time></trkpt><trkpt lat="48.58549032398737" lon="-2.5607624915142315"><ele>8.666666666666666</ele><time>2026-05-01T16:51:56.999Z</time></trkpt><trkpt lat="48.58553895023423" lon="-2.560668214900355"><ele>9.0</ele><time>2026-05-01T16:51:59.999Z</time></trkpt><trkpt lat="48.58559642877684" lon="-2.56059351688203"><ele>8.833333333333334</ele><time>2026-05-01T16:52:02.999Z</time></trkpt><trkpt lat="48.58566400985153" lon="-2.5605240412233954"><ele>8.666666666666666</ele><time>2026-05-01T16:52:05.999Z</time></trkpt><trkpt lat="48.58572128693249" lon="-2.5604521648154197"><ele>8.5</ele><time>2026-05-01T16:52:08.999Z</time></trkpt><trkpt lat="48.58575802151432" lon="-2.560366562732306"><ele>8.333333333333332</ele><time>2026-05-01T16:52:11.999Z</time></trkpt><trkpt lat="48.58581684424994" lon="-2.560317908967664"><ele>8.166666666666666</ele><time>2026-05-01T16:52:13.999Z</time></trkpt><trkpt lat="48.585859779253106" lon="-2.560216355715929"><ele>8.0</ele><time>2026-05-01T16:52:16.999Z</time></trkpt><trkpt lat="48.58591159794172" lon="-2.5601187577414803"><ele>7.999999999999999</ele><time>2026-05-01T16:52:19.999Z</time></trkpt><trkpt lat="48.585949136636124" lon="-2.560038947867392"><ele>8.0</ele><time>2026-05-01T16:52:21.999Z</time></trkpt><trkpt lat="48.58600798263906" lon="-2.559943037067186"><ele>8.0</ele><time>2026-05-01T16:52:24.999Z</time></trkpt><trkpt lat="48.58606590640798" lon="-2.5598464994683527"><ele>8.0</ele><time>2026-05-01T16:52:27.999Z</time></trkpt><trkpt lat="48.58611847183261" lon="-2.559774459140592"><ele>7.999999999999999</ele><time>2026-05-01T16:52:29.999Z</time></trkpt><trkpt lat="48.586184310799986" lon="-2.559704103588993"><ele>8.0</ele><time>2026-05-01T16:52:32.999Z</time></trkpt><trkpt lat="48.58624307229714" lon="-2.559617729451408"><ele>7.999999999999999</ele><time>2026-05-01T16:52:35.999Z</time></trkpt><trkpt lat="48.586315847829056" lon="-2.559539835918828"><ele>8.0</ele><time>2026-05-01T16:52:38.999Z</time></trkpt><trkpt lat="48.586377908998784" lon="-2.559437054971256"><ele>8.0</ele><time>2026-05-01T16:52:41.999Z</time></trkpt><trkpt lat="48.58642038034502" lon="-2.559345002989197"><ele>8.0</ele><time>2026-05-01T16:52:44.999Z</time></trkpt><trkpt lat="48.586468251259404" lon="-2.559248173187859"><ele>7.999999999999999</ele><time>2026-05-01T16:52:47.999Z</time></trkpt><trkpt lat="48.58651640598273" lon="-2.559150217010117"><ele>8.0</ele><time>2026-05-01T16:52:50.999Z</time></trkpt><trkpt lat="48.586570079188604" lon="-2.55905093810661"><ele>7.999999999999999</ele><time>2026-05-01T16:52:53.999Z</time></trkpt><trkpt lat="48.586626588534145" lon="-2.5589642016995016"><ele>8.0</ele><time>2026-05-01T16:52:56.999Z</time></trkpt><trkpt lat="48.58667948367531" lon="-2.558879924353354"><ele>8.0</ele><time>2026-05-01T16:52:59.999Z</time></trkpt><trkpt lat="48.58672204560298" lon="-2.5587883959102986"><ele>8.0</ele><time>2026-05-01T16:53:02.998Z</time></trkpt><trkpt lat="48.58677667320016" lon="-2.5587061005007334"><ele>7.999999999999999</ele><time>2026-05-01T16:53:05.998Z</time></trkpt><trkpt lat="48.58682420955472" lon="-2.5586415290294178"><ele>8.0</ele><time>2026-05-01T16:53:07.998Z</time></trkpt><trkpt lat="48.58689196459867" lon="-2.5585642083565125"><ele>7.666666666666666</ele><time>2026-05-01T16:53:10.998Z</time></trkpt><trkpt lat="48.58694393522113" lon="-2.558509524196245"><ele>7.333333333333333</ele><time>2026-05-01T16:53:13Z</time></trkpt><trkpt lat="48.58700117768712" lon="-2.558430945059821"><ele>7.0</ele><time>2026-05-01T16:53:16Z</time></trkpt><trkpt lat="48.58705528354046" lon="-2.5583493341716568"><ele>6.666666666666666</ele><time>2026-05-01T16:53:19Z</time></trkpt><trkpt lat="48.58710506602204" lon="-2.5582710881946906"><ele>6.333333333333333</ele><time>2026-05-01T16:53:22Z</time></trkpt><trkpt lat="48.58717494486775" lon="-2.5581928295933225"><ele>6.0</ele><time>2026-05-01T16:53:25Z</time></trkpt><trkpt lat="48.58720818035117" lon="-2.5580829393802196"><ele>6.0</ele><time>2026-05-01T16:53:28Z</time></trkpt><trkpt lat="48.587265225840895" lon="-2.5580079295397518"><ele>6.0</ele><time>2026-05-01T16:53:31Z</time></trkpt><trkpt lat="48.58733914979439" lon="-2.5579448647063097"><ele>6.0</ele><time>2026-05-01T16:53:34Z</time></trkpt><trkpt lat="48.587409963846646" lon="-2.557866280528298"><ele>6.0</ele><time>2026-05-01T16:53:37Z</time></trkpt><trkpt lat="48.587463904868905" lon="-2.557774438557524"><ele>6.0</ele><time>2026-05-01T16:53:40Z</time></trkpt><trkpt lat="48.58750736767827" lon="-2.557700508933135"><ele>6.0</ele><time>2026-05-01T16:53:42Z</time></trkpt><trkpt lat="48.58755788075095" lon="-2.5576395765841085"><ele>5.5</ele><time>2026-05-01T16:53:44Z</time></trkpt><trkpt lat="48.58760535282153" lon="-2.5575582285871405"><ele>5.0</ele><time>2026-05-01T16:53:46Z</time></trkpt><trkpt lat="48.587669298443714" lon="-2.5574836537537364"><ele>4.5</ele><time>2026-05-01T16:53:49Z</time></trkpt><trkpt lat="48.58773410601953" lon="-2.557389387798656"><ele>4.0</ele><time>2026-05-01T16:53:52Z</time></trkpt><trkpt lat="48.587782130562104" lon="-2.5572982134693603"><ele>3.5</ele><time>2026-05-01T16:53:55Z</time></trkpt><trkpt lat="48.587842771002265" lon="-2.5572023722602397"><ele>3.0</ele><time>2026-05-01T16:53:58Z</time></trkpt><trkpt lat="48.587899490290305" lon="-2.5571591346540448"><ele>3.0</ele><time>2026-05-01T16:53:59.999Z</time></trkpt><trkpt lat="48.587949316493" lon="-2.557062503472586"><ele>3.0</ele><time>2026-05-01T16:54:02.999Z</time></trkpt><trkpt lat="48.58800837927215" lon="-2.5569792832679945"><ele>3.0</ele><time>2026-05-01T16:54:05.999Z</time></trkpt><trkpt lat="48.58806054141409" lon="-2.5568951952576873"><ele>3.0</ele><time>2026-05-01T16:54:08.999Z</time></trkpt><trkpt lat="48.58811623970305" lon="-2.5568324287751456"><ele>3.0</ele><time>2026-05-01T16:54:10.999Z</time></trkpt><trkpt lat="48.58816412050264" lon="-2.556750800244027"><ele>3.0</ele><time>2026-05-01T16:54:13.999Z</time></trkpt><trkpt lat="48.588231492225184" lon="-2.556658884725392"><ele>4.0</ele><time>2026-05-01T16:54:16.999Z</time></trkpt><trkpt lat="48.58829174226634" lon="-2.5565802585546162"><ele>5.0</ele><time>2026-05-01T16:54:19.999Z</time></trkpt><trkpt lat="48.58835595512346" lon="-2.556501546347835"><ele>6.0</ele><time>2026-05-01T16:54:22.999Z</time></trkpt><trkpt lat="48.58841263204397" lon="-2.556424967565672"><ele>7.0</ele><time>2026-05-01T16:54:25.999Z</time></trkpt><trkpt lat="48.58848262128138" lon="-2.556334611410794"><ele>8.0</ele><time>2026-05-01T16:54:28.999Z</time></trkpt><trkpt lat="48.58854859955047" lon="-2.556280926745653"><ele>9.0</ele><time>2026-05-01T16:54:31.999Z</time></trkpt><trkpt lat="48.588602475107976" lon="-2.5561892659350827"><ele>9.333333333333334</ele><time>2026-05-01T16:54:34.999Z</time></trkpt><trkpt lat="48.58865419898527" lon="-2.55609380241519"><ele>9.666666666666666</ele><time>2026-05-01T16:54:37.999Z</time></trkpt><trkpt lat="48.58871675444506" lon="-2.556025871849518"><ele>10.0</ele><time>2026-05-01T16:54:40.999Z</time></trkpt><trkpt lat="48.58877912048673" lon="-2.5559542355878127"><ele>10.333333333333332</ele><time>2026-05-01T16:54:43.999Z</time></trkpt><trkpt lat="48.58883091748123" lon="-2.5558694507969264"><ele>10.666666666666666</ele><time>2026-05-01T16:54:46.999Z</time></trkpt><trkpt lat="48.588906802360626" lon="-2.555799916653449"><ele>11.0</ele><time>2026-05-01T16:54:49.999Z</time></trkpt><trkpt lat="48.58896245709305" lon="-2.555714730158942"><ele>11.166666666666666</ele><time>2026-05-01T16:54:52.999Z</time></trkpt><trkpt lat="48.58902571489705" lon="-2.5556321527645"><ele>11.333333333333332</ele><time>2026-05-01T16:54:55.999Z</time></trkpt><trkpt lat="48.5890882791704" lon="-2.555550684482064"><ele>11.5</ele><time>2026-05-01T16:54:58.999Z</time></trkpt><trkpt lat="48.58914734963867" lon="-2.5554744947520893"><ele>11.666666666666666</ele><time>2026-05-01T16:55:01.999Z</time></trkpt><trkpt lat="48.589214355453784" lon="-2.5553861060009413"><ele>11.833333333333334</ele><time>2026-05-01T16:55:04.999Z</time></trkpt><trkpt lat="48.589278944572754" lon="-2.555313015635223"><ele>12.0</ele><time>2026-05-01T16:55:07.999Z</time></trkpt><trkpt lat="48.58934054098012" lon="-2.5552380506219547"><ele>12.0</ele><time>2026-05-01T16:55:10.999Z</time></trkpt><trkpt lat="48.58940388071667" lon="-2.5551515466094257"><ele>12.0</ele><time>2026-05-01T16:55:13.999Z</time></trkpt><trkpt lat="48.58945276167478" lon="-2.555066321273009"><ele>12.0</ele><time>2026-05-01T16:55:16.998Z</time></trkpt><trkpt lat="48.589509153334404" lon="-2.5549636063795482"><ele>12.0</ele><time>2026-05-01T16:55:21Z</time></trkpt><trkpt lat="48.589568532419925" lon="-2.5549312369262163"><ele>12.0</ele><time>2026-05-01T16:55:24Z</time></trkpt><trkpt lat="48.58962373501678" lon="-2.554849539668545"><ele>12.0</ele><time>2026-05-01T16:55:26Z</time></trkpt><trkpt lat="48.58968160086353" lon="-2.554768629320761"><ele>11.833333333333334</ele><time>2026-05-01T16:55:29Z</time></trkpt><trkpt lat="48.58973444122904" lon="-2.554682494344833"><ele>11.666666666666666</ele><time>2026-05-01T16:55:32Z</time></trkpt><trkpt lat="48.58981062501034" lon="-2.55460399910355"><ele>11.5</ele><time>2026-05-01T16:55:35Z</time></trkpt><trkpt lat="48.58985825622257" lon="-2.554519075253978"><ele>11.333333333333332</ele><time>2026-05-01T16:55:38Z</time></trkpt><trkpt lat="48.58992201326357" lon="-2.554441681892803"><ele>11.166666666666666</ele><time>2026-05-01T16:55:41Z</time></trkpt><trkpt lat="48.589991351818625" lon="-2.5543710263509527"><ele>11.0</ele><time>2026-05-01T16:55:44Z</time></trkpt><trkpt lat="48.5900579225825" lon="-2.554292047975292"><ele>11.0</ele><time>2026-05-01T16:55:47Z</time></trkpt><trkpt lat="48.59013829499046" lon="-2.5542473332208746"><ele>11.0</ele><time>2026-05-01T16:55:50Z</time></trkpt><trkpt lat="48.590198082493345" lon="-2.5541868406669406"><ele>11.0</ele><time>2026-05-01T16:55:53Z</time></trkpt><trkpt lat="48.590259336777066" lon="-2.5540996483545415"><ele>11.0</ele><time>2026-05-01T16:55:56Z</time></trkpt><trkpt lat="48.590308521274174" lon="-2.5540126335089357"><ele>11.0</ele><time>2026-05-01T16:55:59Z</time></trkpt><trkpt lat="48.590360595338716" lon="-2.5539414923955293"><ele>11.0</ele><time>2026-05-01T16:56:02Z</time></trkpt><trkpt lat="48.59040525219744" lon="-2.5538568518932885"><ele>11.0</ele><time>2026-05-01T16:56:05Z</time></trkpt><trkpt lat="48.59046651746517" lon="-2.5537875197221425"><ele>11.0</ele><time>2026-05-01T16:56:07.999Z</time></trkpt><trkpt lat="48.59052551244911" lon="-2.5537155682820782"><ele>11.0</ele><time>2026-05-01T16:56:10.999Z</time></trkpt><trkpt lat="48.59058222857459" lon="-2.5536665618034853"><ele>11.0</ele><time>2026-05-01T16:56:13.999Z</time></trkpt><trkpt lat="48.59083397731797" lon="-2.55368714319767"><ele>11.0</ele><time>2026-05-01T16:57:54Z</time></trkpt><trkpt lat="48.59074954843791" lon="-2.553633182022888"><ele>11.0</ele><time>2026-05-01T16:57:58Z</time></trkpt><trkpt lat="48.59065776138534" lon="-2.5536153451351145"><ele>11.0</ele><time>2026-05-01T16:58:01Z</time></trkpt><trkpt lat="48.59059569197553" lon="-2.553659447627117"><ele>11.0</ele><time>2026-05-01T16:58:03Z</time></trkpt><trkpt lat="48.590545547281586" lon="-2.5537262586478335"><ele>11.0</ele><time>2026-05-01T16:58:05Z</time></trkpt><trkpt lat="48.59047516772591" lon="-2.5538016017227942"><ele>11.0</ele><time>2026-05-01T16:58:08Z</time></trkpt><trkpt lat="48.59040517562131" lon="-2.5538233566625608"><ele>11.0</ele><time>2026-05-01T16:58:09Z</time></trkpt><trkpt lat="48.5903587073364" lon="-2.553908490804251"><ele>11.0</ele><time>2026-05-01T16:58:12Z</time></trkpt><trkpt lat="48.59030154145036" lon="-2.554019424633552"><ele>11.0</ele><time>2026-05-01T16:58:15Z</time></trkpt><trkpt lat="48.59023275931713" lon="-2.5540836730656804"><ele>11.0</ele><time>2026-05-01T16:58:18Z</time></trkpt><trkpt lat="48.59018349629934" lon="-2.5541901179269972"><ele>11.0</ele><time>2026-05-01T16:58:21Z</time></trkpt><trkpt lat="48.590107231592015" lon="-2.554266676301545"><ele>11.0</ele><time>2026-05-01T16:58:24Z</time></trkpt><trkpt lat="48.59002579101461" lon="-2.554337973323189"><ele>11.0</ele><time>2026-05-01T16:58:27Z</time></trkpt><trkpt lat="48.589968141138314" lon="-2.5543873893394227"><ele>11.0</ele><time>2026-05-01T16:58:29Z</time></trkpt><trkpt lat="48.58990885091271" lon="-2.5544980567220428"><ele>11.0</ele><time>2026-05-01T16:58:32Z</time></trkpt><trkpt lat="48.58984088103517" lon="-2.5545724373150813"><ele>11.0</ele><time>2026-05-01T16:58:35Z</time></trkpt><trkpt lat="48.589768706256145" lon="-2.5546233406211534"><ele>11.0</ele><time>2026-05-01T16:58:37.999Z</time></trkpt><trkpt lat="48.589724201497326" lon="-2.5547252578827786"><ele>11.0</ele><time>2026-05-01T16:58:39.999Z</time></trkpt><trkpt lat="48.58967388196743" lon="-2.5548064668636"><ele>11.142857142857142</ele><time>2026-05-01T16:58:41.999Z</time></trkpt><trkpt lat="48.58961898160785" lon="-2.5548795173262255"><ele>11.285714285714285</ele><time>2026-05-01T16:58:43.999Z</time></trkpt><trkpt lat="48.58956931247054" lon="-2.5549522588906806"><ele>11.428571428571427</ele><time>2026-05-01T16:58:45.999Z</time></trkpt><trkpt lat="48.58950813018357" lon="-2.555015813280384"><ele>11.571428571428571</ele><time>2026-05-01T16:58:47.999Z</time></trkpt><trkpt lat="48.5894560757994" lon="-2.5550858647658705"><ele>11.714285714285714</ele><time>2026-05-01T16:58:49.999Z</time></trkpt><trkpt lat="48.58940320641694" lon="-2.5551602225063874"><ele>11.857142857142856</ele><time>2026-05-01T16:58:51.999Z</time></trkpt><trkpt lat="48.58934427719779" lon="-2.5552178822892273"><ele>12.0</ele><time>2026-05-01T16:58:53.999Z</time></trkpt><trkpt lat="48.58927101880069" lon="-2.555304698651314"><ele>12.0</ele><time>2026-05-01T16:58:56.999Z</time></trkpt><trkpt lat="48.58921783785652" lon="-2.555369422575231"><ele>12.0</ele><time>2026-05-01T16:58:58.999Z</time></trkpt><trkpt lat="48.589165229506875" lon="-2.5554248661089543"><ele>12.0</ele><time>2026-05-01T16:59:00.999Z</time></trkpt><trkpt lat="48.58912007149787" lon="-2.5554918871407333"><ele>12.0</ele><time>2026-05-01T16:59:02.999Z</time></trkpt><trkpt lat="48.58906970797097" lon="-2.5555585900179474"><ele>12.0</ele><time>2026-05-01T16:59:05.999Z</time></trkpt><trkpt lat="48.5890088620149" lon="-2.5556383831281733"><ele>12.0</ele><time>2026-05-01T16:59:08.999Z</time></trkpt><trkpt lat="48.58893152192999" lon="-2.5557505227895634"><ele>11.833333333333334</ele><time>2026-05-01T16:59:11.999Z</time></trkpt><trkpt lat="48.588877213073005" lon="-2.5558365276457224"><ele>11.666666666666666</ele><time>2026-05-01T16:59:14.999Z</time></trkpt><trkpt lat="48.58882634819011" lon="-2.5558960819086347"><ele>11.5</ele><time>2026-05-01T16:59:16.999Z</time></trkpt><trkpt lat="48.588773606693366" lon="-2.55595462760172"><ele>11.333333333333332</ele><time>2026-05-01T16:59:18.999Z</time></trkpt><trkpt lat="48.5886917538273" lon="-2.556071762764642"><ele>11.166666666666666</ele><time>2026-05-01T16:59:21.999Z</time></trkpt><trkpt lat="48.58862499722498" lon="-2.556147002447912"><ele>11.0</ele><time>2026-05-01T16:59:23.999Z</time></trkpt><trkpt lat="48.58856345346906" lon="-2.556204284546489"><ele>10.714285714285715</ele><time>2026-05-01T16:59:25.999Z</time></trkpt><trkpt lat="48.58851474542848" lon="-2.556287742814789"><ele>10.428571428571429</ele><time>2026-05-01T16:59:27.999Z</time></trkpt><trkpt lat="48.588464705223565" lon="-2.5563891180173934"><ele>10.142857142857142</ele><time>2026-05-01T16:59:29.999Z</time></trkpt><trkpt lat="48.58841891111354" lon="-2.556465054409372"><ele>9.857142857142858</ele><time>2026-05-01T16:59:31.999Z</time></trkpt><trkpt lat="48.58837552276236" lon="-2.5565388940326357"><ele>9.571428571428571</ele><time>2026-05-01T16:59:33.999Z</time></trkpt><trkpt lat="48.58831237562581" lon="-2.5566111611697213"><ele>9.285714285714286</ele><time>2026-05-01T16:59:35.999Z</time></trkpt><trkpt lat="48.58825700884695" lon="-2.5566715810335503"><ele>9.0</ele><time>2026-05-01T16:59:37.999Z</time></trkpt><trkpt lat="48.58821393481356" lon="-2.556750060043766"><ele>9.000000000000002</ele><time>2026-05-01T16:59:39.999Z</time></trkpt><trkpt lat="48.58816303476807" lon="-2.556814416519655"><ele>9.0</ele><time>2026-05-01T16:59:41.999Z</time></trkpt><trkpt lat="48.588116984413695" lon="-2.556885065831876"><ele>9.0</ele><time>2026-05-01T16:59:43.999Z</time></trkpt><trkpt lat="48.58806660053556" lon="-2.5569423540277527"><ele>9.0</ele><time>2026-05-01T16:59:45.999Z</time></trkpt><trkpt lat="48.58801322778419" lon="-2.5570054306179917"><ele>9.0</ele><time>2026-05-01T16:59:48Z</time></trkpt><trkpt lat="48.58794533349631" lon="-2.5570976383879964"><ele>9.000000000000002</ele><time>2026-05-01T16:59:51Z</time></trkpt><trkpt lat="48.5878877249541" lon="-2.55717680224242"><ele>9.0</ele><time>2026-05-01T16:59:53Z</time></trkpt><trkpt lat="48.587834794218644" lon="-2.55723540941029"><ele>9.166666666666666</ele><time>2026-05-01T16:59:55Z</time></trkpt><trkpt lat="48.58778388251354" lon="-2.5572981947320197"><ele>9.333333333333334</ele><time>2026-05-01T16:59:57Z</time></trkpt><trkpt lat="48.58771265339514" lon="-2.5573859706924496"><ele>9.5</ele><time>2026-05-01T17:00:00Z</time></trkpt><trkpt lat="48.587660983122994" lon="-2.557446232224814"><ele>9.666666666666668</ele><time>2026-05-01T17:00:02Z</time></trkpt><trkpt lat="48.587620970506855" lon="-2.557537175158766"><ele>9.833333333333334</ele><time>2026-05-01T17:00:04Z</time></trkpt><trkpt lat="48.58757550113905" lon="-2.5576091125767872"><ele>10.0</ele><time>2026-05-01T17:00:06Z</time></trkpt><trkpt lat="48.58750420728458" lon="-2.5576936536010493"><ele>10.0</ele><time>2026-05-01T17:00:09Z</time></trkpt><trkpt lat="48.58745419791362" lon="-2.557776947086186"><ele>10.0</ele><time>2026-05-01T17:00:11Z</time></trkpt><trkpt lat="48.58738996856804" lon="-2.5578585983525888"><ele>10.0</ele><time>2026-05-01T17:00:14Z</time></trkpt><trkpt lat="48.587338668768076" lon="-2.5579381027195858"><ele>10.0</ele><time>2026-05-01T17:00:16Z</time></trkpt><trkpt lat="48.58728938472858" lon="-2.5580085371675096"><ele>10.0</ele><time>2026-05-01T17:00:18Z</time></trkpt><trkpt lat="48.587231371529505" lon="-2.558072478357285"><ele>10.0</ele><time>2026-05-01T17:00:20Z</time></trkpt><trkpt lat="48.58717687831195" lon="-2.5581329303818587"><ele>10.0</ele><time>2026-05-01T17:00:22Z</time></trkpt><trkpt lat="48.587124694394056" lon="-2.558192998498591"><ele>10.166666666666668</ele><time>2026-05-01T17:00:24Z</time></trkpt><trkpt lat="48.587062365565494" lon="-2.5582895861857886"><ele>10.333333333333334</ele><time>2026-05-01T17:00:27Z</time></trkpt><trkpt lat="48.58702072085794" lon="-2.5583758217997845"><ele>10.5</ele><time>2026-05-01T17:00:29Z</time></trkpt><trkpt lat="48.58697408386906" lon="-2.5584428789034943"><ele>10.666666666666666</ele><time>2026-05-01T17:00:31Z</time></trkpt><trkpt lat="48.58691561100105" lon="-2.558513015497688"><ele>10.833333333333332</ele><time>2026-05-01T17:00:33Z</time></trkpt><trkpt lat="48.58685114009744" lon="-2.558614337255963"><ele>11.0</ele><time>2026-05-01T17:00:35.999Z</time></trkpt><trkpt lat="48.58680313568108" lon="-2.5586842772562988"><ele>10.5</ele><time>2026-05-01T17:00:37.999Z</time></trkpt><trkpt lat="48.586741785859594" lon="-2.55878603337248"><ele>10.0</ele><time>2026-05-01T17:00:40.999Z</time></trkpt><trkpt lat="48.586694453649926" lon="-2.558865744965562"><ele>9.5</ele><time>2026-05-01T17:00:42.999Z</time></trkpt><trkpt lat="48.58665364135282" lon="-2.5589412000389236"><ele>9.0</ele><time>2026-05-01T17:00:44.999Z</time></trkpt><trkpt lat="48.58660363597344" lon="-2.559005767966585"><ele>8.5</ele><time>2026-05-01T17:00:46.999Z</time></trkpt><trkpt lat="48.58654145545106" lon="-2.5591054748078967"><ele>8.0</ele><time>2026-05-01T17:00:49.999Z</time></trkpt><trkpt lat="48.58649295172609" lon="-2.559176663417309"><ele>7.999999999999999</ele><time>2026-05-01T17:00:51.999Z</time></trkpt><trkpt lat="48.58644175613749" lon="-2.559288978687282"><ele>8.0</ele><time>2026-05-01T17:00:54.999Z</time></trkpt><trkpt lat="48.586381546752655" lon="-2.559392711924719"><ele>8.0</ele><time>2026-05-01T17:00:57.999Z</time></trkpt><trkpt lat="48.586341931635616" lon="-2.5594697584422157"><ele>8.0</ele><time>2026-05-01T17:00:59.999Z</time></trkpt><trkpt lat="48.586295597699845" lon="-2.5595406011167534"><ele>7.999999999999999</ele><time>2026-05-01T17:01:01.999Z</time></trkpt><trkpt lat="48.586235779390584" lon="-2.5596302228873076"><ele>8.0</ele><time>2026-05-01T17:01:04.999Z</time></trkpt><trkpt lat="48.58619375347481" lon="-2.5597021770619937"><ele>8.0</ele><time>2026-05-01T17:01:06.999Z</time></trkpt><trkpt lat="48.58612701966034" lon="-2.559797256814042"><ele>8.0</ele><time>2026-05-01T17:01:09.999Z</time></trkpt><trkpt lat="48.58605628694334" lon="-2.559909407984949"><ele>8.0</ele><time>2026-05-01T17:01:12.999Z</time></trkpt><trkpt lat="48.58599141497921" lon="-2.559998155905142"><ele>8.0</ele><time>2026-05-01T17:01:15.999Z</time></trkpt><trkpt lat="48.585926962202706" lon="-2.560091594774962"><ele>8.0</ele><time>2026-05-01T17:01:18.999Z</time></trkpt><trkpt lat="48.58585631078584" lon="-2.560201926324852"><ele>7.999999999999999</ele><time>2026-05-01T17:01:21.999Z</time></trkpt><trkpt lat="48.58579389538771" lon="-2.5602829989541895"><ele>8.0</ele><time>2026-05-01T17:01:24.999Z</time></trkpt><trkpt lat="48.58573110393874" lon="-2.5603837211887406"><ele>8.0</ele><time>2026-05-01T17:01:27.999Z</time></trkpt><trkpt lat="48.58568023794889" lon="-2.5604667891608344"><ele>8.0</ele><time>2026-05-01T17:01:29.999Z</time></trkpt><trkpt lat="48.58561474522819" lon="-2.560547694791197"><ele>7.999999999999999</ele><time>2026-05-01T17:01:32.999Z</time></trkpt><trkpt lat="48.585557438837405" lon="-2.560648570429002"><ele>8.0</ele><time>2026-05-01T17:01:35.999Z</time></trkpt><trkpt lat="48.58550060025606" lon="-2.5607447952164257"><ele>8.142857142857142</ele><time>2026-05-01T17:01:38.999Z</time></trkpt><trkpt lat="48.5854423681227" lon="-2.5608406341855066"><ele>8.285714285714285</ele><time>2026-05-01T17:01:41.999Z</time></trkpt><trkpt lat="48.58539811991218" lon="-2.5609177758919492"><ele>8.428571428571429</ele><time>2026-05-01T17:01:43.999Z</time></trkpt><trkpt lat="48.585358278346604" lon="-2.5609936206926"><ele>8.571428571428571</ele><time>2026-05-01T17:01:45.998Z</time></trkpt><trkpt lat="48.585310795031724" lon="-2.5610640711381447"><ele>8.714285714285715</ele><time>2026-05-01T17:01:47.998Z</time></trkpt><trkpt lat="48.58524472585629" lon="-2.5611609706080243"><ele>8.857142857142858</ele><time>2026-05-01T17:01:50.998Z</time></trkpt><trkpt lat="48.58519018409214" lon="-2.5612236731499767"><ele>9.0</ele><time>2026-05-01T17:01:52.998Z</time></trkpt><trkpt lat="48.5851214975907" lon="-2.5613190291930272"><ele>8.714285714285715</ele><time>2026-05-01T17:01:56Z</time></trkpt><trkpt lat="48.58508279930192" lon="-2.5613972976702626"><ele>8.428571428571429</ele><time>2026-05-01T17:01:58Z</time></trkpt><trkpt lat="48.58503650572232" lon="-2.5614714724570375"><ele>8.142857142857142</ele><time>2026-05-01T17:02:00Z</time></trkpt><trkpt lat="48.5850043470007" lon="-2.56155782204162"><ele>7.857142857142858</ele><time>2026-05-01T17:02:02Z</time></trkpt><trkpt lat="48.58497336241916" lon="-2.5616429804501792"><ele>7.571428571428571</ele><time>2026-05-01T17:02:04Z</time></trkpt><trkpt lat="48.58493967718404" lon="-2.56172788869775"><ele>7.285714285714286</ele><time>2026-05-01T17:02:06Z</time></trkpt><trkpt lat="48.584893034169056" lon="-2.5618096741781167"><ele>7.0</ele><time>2026-05-01T17:02:08Z</time></trkpt><trkpt lat="48.584838981062475" lon="-2.5618709930389723"><ele>7.0</ele><time>2026-05-01T17:02:10Z</time></trkpt><trkpt lat="48.58479320309583" lon="-2.561936691409212"><ele>7.0</ele><time>2026-05-01T17:02:12Z</time></trkpt><trkpt lat="48.58472505579144" lon="-2.562010020326788"><ele>7.0</ele><time>2026-05-01T17:02:15Z</time></trkpt><trkpt lat="48.58468537729182" lon="-2.562088112625374"><ele>7.0</ele><time>2026-05-01T17:02:17Z</time></trkpt><trkpt lat="48.5846499663218" lon="-2.5621739290591647"><ele>7.0</ele><time>2026-05-01T17:02:20Z</time></trkpt><trkpt lat="48.584635574012616" lon="-2.562181011693457"><ele>7.0</ele><time>2026-05-01T17:04:36.999Z</time></trkpt><trkpt lat="48.584577393389694" lon="-2.5620556764566578"><ele>7.0</ele><time>2026-05-01T17:04:39.999Z</time></trkpt><trkpt lat="48.58453716206894" lon="-2.56195232299368"><ele>8.0</ele><time>2026-05-01T17:04:41.999Z</time></trkpt><trkpt lat="48.58447157226925" lon="-2.561874037351417"><ele>9.0</ele><time>2026-05-01T17:04:44.999Z</time></trkpt><trkpt lat="48.58444312287682" lon="-2.5617544482452335"><ele>10.0</ele><time>2026-05-01T17:04:47.999Z</time></trkpt><trkpt lat="48.58436154861326" lon="-2.561692673272633"><ele>11.0</ele><time>2026-05-01T17:04:49.999Z</time></trkpt><trkpt lat="48.58430873986979" lon="-2.5615932597650954"><ele>11.999999999999998</ele><time>2026-05-01T17:04:52.999Z</time></trkpt><trkpt lat="48.58424942736305" lon="-2.5615037213720755"><ele>13.0</ele><time>2026-05-01T17:04:55.999Z</time></trkpt><trkpt lat="48.58418503311643" lon="-2.561417032601769"><ele>12.999999999999998</ele><time>2026-05-01T17:04:58.999Z</time></trkpt><trkpt lat="48.58415981501559" lon="-2.561324612975461"><ele>13.0</ele><time>2026-05-01T17:05:00.999Z</time></trkpt><trkpt lat="48.58409548439484" lon="-2.5612110595402"><ele>13.0</ele><time>2026-05-01T17:05:03.999Z</time></trkpt><trkpt lat="48.584023649236435" lon="-2.5611240918168092"><ele>13.0</ele><time>2026-05-01T17:05:06.999Z</time></trkpt><trkpt lat="48.583955829615945" lon="-2.5610424705976325"><ele>12.999999999999998</ele><time>2026-05-01T17:05:09.999Z</time></trkpt><trkpt lat="48.58388314055171" lon="-2.5609558306894535"><ele>13.0</ele><time>2026-05-01T17:05:12.999Z</time></trkpt><trkpt lat="48.583799667239916" lon="-2.560905696936766"><ele>12.499999999999998</ele><time>2026-05-01T17:05:15.999Z</time></trkpt><trkpt lat="48.583714026580004" lon="-2.5608512788308455"><ele>12.0</ele><time>2026-05-01T17:05:18.999Z</time></trkpt><trkpt lat="48.58363251477368" lon="-2.5607797476702037"><ele>11.5</ele><time>2026-05-01T17:05:21.999Z</time></trkpt><trkpt lat="48.58357491633091" lon="-2.5607272595611255"><ele>11.0</ele><time>2026-05-01T17:05:23.999Z</time></trkpt><trkpt lat="48.58351247636102" lon="-2.5606768735968255"><ele>10.5</ele><time>2026-05-01T17:05:25.999Z</time></trkpt><trkpt lat="48.58344456392032" lon="-2.560734028306274"><ele>10.0</ele><time>2026-05-01T17:05:29.999Z</time></trkpt><trkpt lat="48.58339396936842" lon="-2.560663436716322"><ele>10.166666666666668</ele><time>2026-05-01T17:05:30.999Z</time></trkpt><trkpt lat="48.58332473860689" lon="-2.5605774899055946"><ele>10.333333333333334</ele><time>2026-05-01T17:05:33.999Z</time></trkpt><trkpt lat="48.58324688560491" lon="-2.5605074416079403"><ele>10.5</ele><time>2026-05-01T17:05:36.999Z</time></trkpt><trkpt lat="48.5831717868755" lon="-2.5604553084607593"><ele>10.666666666666666</ele><time>2026-05-01T17:05:39.999Z</time></trkpt><trkpt lat="48.583096372433715" lon="-2.5603987313329815"><ele>10.833333333333332</ele><time>2026-05-01T17:05:42.999Z</time></trkpt><trkpt lat="48.58303416230709" lon="-2.560338339612322"><ele>11.0</ele><time>2026-05-01T17:05:45.998Z</time></trkpt><trkpt lat="48.58297351712467" lon="-2.5603114949819576"><ele>11.0</ele><time>2026-05-01T17:05:47.998Z</time></trkpt><trkpt lat="48.582914407500034" lon="-2.5602526952851115"><ele>11.0</ele><time>2026-05-01T17:05:50Z</time></trkpt><trkpt lat="48.58283502469715" lon="-2.560192631206497"><ele>11.0</ele><time>2026-05-01T17:05:53Z</time></trkpt><trkpt lat="48.58275391812179" lon="-2.5601238484824385"><ele>11.0</ele><time>2026-05-01T17:05:56Z</time></trkpt><trkpt lat="48.582669069151926" lon="-2.5600588058692155"><ele>11.0</ele><time>2026-05-01T17:05:59Z</time></trkpt><trkpt lat="48.58259395408259" lon="-2.559998733292255"><ele>11.0</ele><time>2026-05-01T17:06:02Z</time></trkpt><trkpt lat="48.58253242270028" lon="-2.5599674400964845"><ele>11.666666666666666</ele><time>2026-05-01T17:06:04Z</time></trkpt><trkpt lat="48.5824442829221" lon="-2.559915994628256"><ele>12.333333333333332</ele><time>2026-05-01T17:06:07Z</time></trkpt><trkpt lat="48.58235054619315" lon="-2.559864884146373"><ele>13.0</ele><time>2026-05-01T17:06:10Z</time></trkpt><trkpt lat="48.58229560254783" lon="-2.5598099920082733"><ele>13.666666666666666</ele><time>2026-05-01T17:06:12Z</time></trkpt><trkpt lat="48.582216767222796" lon="-2.5597457349695225"><ele>14.333333333333334</ele><time>2026-05-01T17:06:15Z</time></trkpt><trkpt lat="48.5821554161971" lon="-2.5596718291944174"><ele>15.0</ele><time>2026-05-01T17:06:18Z</time></trkpt><trkpt lat="48.582081116774546" lon="-2.5595804132938462"><ele>15.333333333333334</ele><time>2026-05-01T17:06:21Z</time></trkpt><trkpt lat="48.582020588193984" lon="-2.55949838590608"><ele>15.666666666666668</ele><time>2026-05-01T17:06:24Z</time></trkpt><trkpt lat="48.5819822403431" lon="-2.559386987722369"><ele>16.0</ele><time>2026-05-01T17:06:27Z</time></trkpt><trkpt lat="48.581954263102205" lon="-2.559298099695187"><ele>16.333333333333336</ele><time>2026-05-01T17:06:29Z</time></trkpt><trkpt lat="48.581919766929644" lon="-2.5591834371003905"><ele>16.666666666666668</ele><time>2026-05-01T17:06:31.999Z</time></trkpt><trkpt lat="48.581889615261744" lon="-2.5590618280471777"><ele>17.0</ele><time>2026-05-01T17:06:34.999Z</time></trkpt><trkpt lat="48.581855767130136" lon="-2.558957932561822"><ele>17.0</ele><time>2026-05-01T17:06:37.999Z</time></trkpt><trkpt lat="48.58182775992577" lon="-2.5588426521348073"><ele>17.0</ele><time>2026-05-01T17:06:40.999Z</time></trkpt><trkpt lat="48.5817943571928" lon="-2.558734976502692"><ele>17.0</ele><time>2026-05-01T17:06:43.999Z</time></trkpt><trkpt lat="48.58176738248174" lon="-2.558648537256149"><ele>17.0</ele><time>2026-05-01T17:06:45.999Z</time></trkpt><trkpt lat="48.5817369397182" lon="-2.5585315715059163"><ele>17.0</ele><time>2026-05-01T17:06:48.999Z</time></trkpt><trkpt lat="48.58171299884553" lon="-2.5584025322620363"><ele>17.0</ele><time>2026-05-01T17:06:51.999Z</time></trkpt><trkpt lat="48.58168167539979" lon="-2.55829669610243"><ele>17.166666666666668</ele><time>2026-05-01T17:06:54.999Z</time></trkpt><trkpt lat="48.58166086808725" lon="-2.5581941123535517"><ele>17.333333333333336</ele><time>2026-05-01T17:06:56.999Z</time></trkpt><trkpt lat="48.58162369102715" lon="-2.5581041551352075"><ele>17.5</ele><time>2026-05-01T17:06:58.999Z</time></trkpt><trkpt lat="48.581594719156605" lon="-2.557989232271417"><ele>17.666666666666668</ele><time>2026-05-01T17:07:01.999Z</time></trkpt><trkpt lat="48.581596081688275" lon="-2.5578578516001578"><ele>17.833333333333332</ele><time>2026-05-01T17:07:04.999Z</time></trkpt><trkpt lat="48.581573081475184" lon="-2.5577549885835826"><ele>18.0</ele><time>2026-05-01T17:07:06.999Z</time></trkpt><trkpt lat="48.581557751387706" lon="-2.5576311062699233"><ele>17.666666666666668</ele><time>2026-05-01T17:07:09.999Z</time></trkpt><trkpt lat="48.581580535962736" lon="-2.5575421905992815"><ele>17.333333333333332</ele><time>2026-05-01T17:07:11.999Z</time></trkpt><trkpt lat="48.581577660101516" lon="-2.557413730765347"><ele>17.0</ele><time>2026-05-01T17:07:14.999Z</time></trkpt><trkpt lat="48.58158479770184" lon="-2.5572789293622176"><ele>16.666666666666664</ele><time>2026-05-01T17:07:17.999Z</time></trkpt><trkpt lat="48.581590072218205" lon="-2.557151055898299"><ele>16.333333333333332</ele><time>2026-05-01T17:07:20.999Z</time></trkpt><trkpt lat="48.581598524031115" lon="-2.5570557107793683"><ele>16.0</ele><time>2026-05-01T17:07:22.999Z</time></trkpt><trkpt lat="48.58159642807642" lon="-2.556928477164932"><ele>15.714285714285714</ele><time>2026-05-01T17:07:25.999Z</time></trkpt><trkpt lat="48.58159798199747" lon="-2.556833193633702"><ele>15.428571428571427</ele><time>2026-05-01T17:07:27.999Z</time></trkpt><trkpt lat="48.58157860662801" lon="-2.5567385089986416"><ele>15.142857142857142</ele><time>2026-05-01T17:07:29.999Z</time></trkpt><trkpt lat="48.58157785333135" lon="-2.556622550641247"><ele>14.857142857142858</ele><time>2026-05-01T17:07:32.999Z</time></trkpt><trkpt lat="48.58154178287072" lon="-2.556515589934277"><ele>14.571428571428571</ele><time>2026-05-01T17:07:35.999Z</time></trkpt><trkpt lat="48.58148228930882" lon="-2.5564405762362155"><ele>14.285714285714285</ele><time>2026-05-01T17:07:38.999Z</time></trkpt><trkpt lat="48.58143253038895" lon="-2.5563581604561216"><ele>14.0</ele><time>2026-05-01T17:07:41.999Z</time></trkpt><trkpt lat="48.58136464343133" lon="-2.5562885329204463"><ele>14.000000000000002</ele><time>2026-05-01T17:07:44.999Z</time></trkpt><trkpt lat="48.58130830100976" lon="-2.556213104059543"><ele>14.0</ele><time>2026-05-01T17:07:47.999Z</time></trkpt><trkpt lat="48.58125209367908" lon="-2.5561444660292403"><ele>14.0</ele><time>2026-05-01T17:07:50.998Z</time></trkpt><trkpt lat="48.58119350057288" lon="-2.55609841212838"><ele>14.0</ele><time>2026-05-01T17:07:53.998Z</time></trkpt><trkpt lat="48.5811459870611" lon="-2.5560033785978087"><ele>14.000000000000002</ele><time>2026-05-01T17:07:57Z</time></trkpt><trkpt lat="48.58118206375066" lon="-2.5558850759958243"><ele>14.0</ele><time>2026-05-01T17:08:01Z</time></trkpt><trkpt lat="48.58125107779626" lon="-2.5558148315409057"><ele>13.833333333333334</ele><time>2026-05-01T17:08:04Z</time></trkpt><trkpt lat="48.58126183109879" lon="-2.555699596148811"><ele>13.666666666666668</ele><time>2026-05-01T17:08:06Z</time></trkpt><trkpt lat="48.5812395097778" lon="-2.555565779475907"><ele>13.5</ele><time>2026-05-01T17:08:09Z</time></trkpt><trkpt lat="48.58118150315678" lon="-2.5555040105480438"><ele>13.333333333333332</ele><time>2026-05-01T17:08:11Z</time></trkpt><trkpt lat="48.581107760483896" lon="-2.555449384507574"><ele>13.166666666666666</ele><time>2026-05-01T17:08:14Z</time></trkpt><trkpt lat="48.58102980954019" lon="-2.555414372172558"><ele>13.0</ele><time>2026-05-01T17:08:17Z</time></trkpt><trkpt lat="48.58097984070062" lon="-2.5553464245558355"><ele>13.142857142857142</ele><time>2026-05-01T17:08:21Z</time></trkpt><trkpt lat="48.58100239427502" lon="-2.5552489726264582"><ele>13.285714285714286</ele><time>2026-05-01T17:08:23Z</time></trkpt><trkpt lat="48.581032109833956" lon="-2.555131190267565"><ele>13.428571428571429</ele><time>2026-05-01T17:08:25Z</time></trkpt><trkpt lat="48.58107362037923" lon="-2.5550353695546177"><ele>13.571428571428571</ele><time>2026-05-01T17:08:29Z</time></trkpt><trkpt lat="48.58112004767433" lon="-2.5549511271824414"><ele>13.714285714285715</ele><time>2026-05-01T17:08:32Z</time></trkpt><trkpt lat="48.581149211057536" lon="-2.554857010242479"><ele>13.857142857142858</ele><time>2026-05-01T17:08:35Z</time></trkpt><trkpt lat="48.58116983027365" lon="-2.554747275647651"><ele>14.0</ele><time>2026-05-01T17:08:38Z</time></trkpt><trkpt lat="48.58118984384323" lon="-2.55464521086345"><ele>14.0</ele><time>2026-05-01T17:08:40.999Z</time></trkpt><trkpt lat="48.58120891268844" lon="-2.5545469637409512"><ele>14.0</ele><time>2026-05-01T17:08:43.999Z</time></trkpt><trkpt lat="48.58123167625618" lon="-2.5544395658558745"><ele>14.0</ele><time>2026-05-01T17:08:46.999Z</time></trkpt><trkpt lat="48.581245786394035" lon="-2.5543193327771454"><ele>14.0</ele><time>2026-05-01T17:08:49.999Z</time></trkpt><trkpt lat="48.581275692254806" lon="-2.5542176633810767"><ele>14.0</ele><time>2026-05-01T17:08:52.999Z</time></trkpt><trkpt lat="48.581311832127106" lon="-2.554114191953173"><ele>14.0</ele><time>2026-05-01T17:08:55.999Z</time></trkpt><trkpt lat="48.58135043201812" lon="-2.554021326831236"><ele>14.0</ele><time>2026-05-01T17:08:58.999Z</time></trkpt><trkpt lat="48.58137818910436" lon="-2.553918973095592"><ele>14.285714285714285</ele><time>2026-05-01T17:09:01.999Z</time></trkpt><trkpt lat="48.58142198081779" lon="-2.5538410421675493"><ele>14.571428571428571</ele><time>2026-05-01T17:09:04.999Z</time></trkpt><trkpt lat="48.581468131977" lon="-2.5537510446752116"><ele>14.857142857142858</ele><time>2026-05-01T17:09:07.999Z</time></trkpt><trkpt lat="48.581514593808144" lon="-2.5536680514347294"><ele>15.142857142857142</ele><time>2026-05-01T17:09:10.999Z</time></trkpt><trkpt lat="48.58155442088184" lon="-2.5535810189242403"><ele>15.428571428571427</ele><time>2026-05-01T17:09:13.999Z</time></trkpt><trkpt lat="48.581587409270945" lon="-2.5534825825690985"><ele>15.714285714285714</ele><time>2026-05-01T17:09:16.999Z</time></trkpt><trkpt lat="48.58161194290479" lon="-2.5533909970231923"><ele>16.0</ele><time>2026-05-01T17:09:19.999Z</time></trkpt><trkpt lat="48.581647842767396" lon="-2.553305747073524"><ele>16.428571428571427</ele><time>2026-05-01T17:09:22.999Z</time></trkpt><trkpt lat="48.58168139131294" lon="-2.553207306147676"><ele>16.857142857142854</ele><time>2026-05-01T17:09:25.999Z</time></trkpt><trkpt lat="48.58171329513778" lon="-2.5531209318515926"><ele>17.285714285714285</ele><time>2026-05-01T17:09:28.999Z</time></trkpt><trkpt lat="48.58175875551352" lon="-2.5530415636571475"><ele>17.714285714285715</ele><time>2026-05-01T17:09:31.999Z</time></trkpt><trkpt lat="48.58179882930526" lon="-2.5529479121565557"><ele>18.142857142857146</ele><time>2026-05-01T17:09:34.999Z</time></trkpt><trkpt lat="48.58183707130194" lon="-2.5528667373739795"><ele>18.57142857142857</ele><time>2026-05-01T17:09:37.999Z</time></trkpt><trkpt lat="48.581880460154096" lon="-2.5527936868585215"><ele>19.0</ele><time>2026-05-01T17:09:40.999Z</time></trkpt><trkpt lat="48.58193990164548" lon="-2.5527252691654265"><ele>22.0</ele><time>2026-05-01T17:09:43.999Z</time></trkpt><trkpt lat="48.581984624015796" lon="-2.552639387426364"><ele>22.0</ele><time>2026-05-01T17:09:46.999Z</time></trkpt><trkpt lat="48.5820030162879" lon="-2.5525426285698"><ele>22.0</ele><time>2026-05-01T17:09:49.999Z</time></trkpt><trkpt lat="48.582029775939" lon="-2.5524404702663555"><ele>25.0</ele><time>2026-05-01T17:09:52.999Z</time></trkpt><trkpt lat="48.58208424298711" lon="-2.552376677958206"><ele>25.0</ele><time>2026-05-01T17:09:55.999Z</time></trkpt><trkpt lat="48.582147224836056" lon="-2.5523242924082563"><ele>25.0</ele><time>2026-05-01T17:09:58.998Z</time></trkpt><trkpt lat="48.58219652694782" lon="-2.5522609491482986"><ele>25.0</ele><time>2026-05-01T17:10:02Z</time></trkpt></trkseg></trk></gpx>